<?xml version="1.0" encoding="UTF-8" standalone="no" ?>
<gpx xmlns="http://www.topografix.com/GPX/1/1" xmlns:xsi="http://www.w3.org/2001/XMLSchema-instance" xsi:schemaLocation="http://www.topografix.com/GPX/1/1 http://www.topografix.com/GPX/1/1/gpx.xsd" version="1.1" creator="VisuGPX - https://www.visugpx.com">
  <metadata>
    <name>Chemin Faisant à Croignon 2016</name>
    <desc><![CDATA[Balade très agréable empruntant de nombreux sentiers dans les bois.]]></desc>
  </metadata>
  <trk>
    <name><![CDATA[2016-05-28 12:31:17]]></name>
    <trkseg>
      <trkpt lat="44.81975" lon="-0.34559">
        <ele>48</ele>
        <time>2016-05-28T06:49:22Z</time>
      </trkpt>
      <trkpt lat="44.8198" lon="-0.34565">
        <ele>47</ele>
        <time>2016-05-28T06:49:40Z</time>
      </trkpt>
      <trkpt lat="44.81977" lon="-0.34568">
        <ele>48</ele>
        <time>2016-05-28T06:49:52Z</time>
      </trkpt>
      <trkpt lat="44.81977" lon="-0.34568">
        <ele>48</ele>
        <time>2016-05-28T06:49:54Z</time>
      </trkpt>
      <trkpt lat="44.81975" lon="-0.34569">
        <ele>48</ele>
        <time>2016-05-28T06:50:05Z</time>
      </trkpt>
      <trkpt lat="44.81976" lon="-0.34568">
        <ele>48</ele>
        <time>2016-05-28T06:50:21Z</time>
      </trkpt>
      <trkpt lat="44.81975" lon="-0.34568">
        <ele>48</ele>
        <time>2016-05-28T06:50:36Z</time>
      </trkpt>
      <trkpt lat="44.81976" lon="-0.3457">
        <ele>48</ele>
        <time>2016-05-28T06:50:53Z</time>
      </trkpt>
      <trkpt lat="44.81973" lon="-0.34569">
        <ele>48</ele>
        <time>2016-05-28T06:51:08Z</time>
      </trkpt>
      <trkpt lat="44.8197" lon="-0.34566">
        <ele>48</ele>
        <time>2016-05-28T06:51:25Z</time>
      </trkpt>
      <trkpt lat="44.81973" lon="-0.34568">
        <ele>48</ele>
        <time>2016-05-28T06:51:37Z</time>
      </trkpt>
      <trkpt lat="44.81973" lon="-0.34572">
        <ele>48</ele>
        <time>2016-05-28T06:51:53Z</time>
      </trkpt>
      <trkpt lat="44.81977" lon="-0.34573">
        <ele>47</ele>
        <time>2016-05-28T06:52:04Z</time>
      </trkpt>
      <trkpt lat="44.81981" lon="-0.34569">
        <ele>47</ele>
        <time>2016-05-28T06:52:09Z</time>
      </trkpt>
      <trkpt lat="44.81983" lon="-0.34557">
        <ele>47</ele>
        <time>2016-05-28T06:52:22Z</time>
      </trkpt>
      <trkpt lat="44.81989" lon="-0.3456">
        <ele>47</ele>
        <time>2016-05-28T06:52:34Z</time>
      </trkpt>
      <trkpt lat="44.81987" lon="-0.34559">
        <ele>47</ele>
        <time>2016-05-28T06:52:43Z</time>
      </trkpt>
      <trkpt lat="44.81986" lon="-0.34557">
        <ele>47</ele>
        <time>2016-05-28T06:53:03Z</time>
      </trkpt>
      <trkpt lat="44.81979" lon="-0.3456">
        <ele>48</ele>
        <time>2016-05-28T06:53:16Z</time>
      </trkpt>
      <trkpt lat="44.81976" lon="-0.34561">
        <ele>48</ele>
        <time>2016-05-28T06:53:31Z</time>
      </trkpt>
      <trkpt lat="44.81977" lon="-0.3456">
        <ele>48</ele>
        <time>2016-05-28T06:53:43Z</time>
      </trkpt>
      <trkpt lat="44.81974" lon="-0.34562">
        <ele>48</ele>
        <time>2016-05-28T06:54:13Z</time>
      </trkpt>
      <trkpt lat="44.81974" lon="-0.34561">
        <ele>48</ele>
        <time>2016-05-28T06:54:21Z</time>
      </trkpt>
      <trkpt lat="44.81975" lon="-0.34561">
        <ele>48</ele>
        <time>2016-05-28T06:54:34Z</time>
      </trkpt>
      <trkpt lat="44.81975" lon="-0.34561">
        <ele>48</ele>
        <time>2016-05-28T06:54:52Z</time>
      </trkpt>
      <trkpt lat="44.81973" lon="-0.34564">
        <ele>48</ele>
        <time>2016-05-28T06:55:15Z</time>
      </trkpt>
      <trkpt lat="44.81972" lon="-0.34563">
        <ele>48</ele>
        <time>2016-05-28T06:55:39Z</time>
      </trkpt>
      <trkpt lat="44.81974" lon="-0.34562">
        <ele>48</ele>
        <time>2016-05-28T06:56:02Z</time>
      </trkpt>
      <trkpt lat="44.81973" lon="-0.34561">
        <ele>48</ele>
        <time>2016-05-28T06:56:32Z</time>
      </trkpt>
      <trkpt lat="44.81973" lon="-0.34561">
        <ele>48</ele>
        <time>2016-05-28T06:56:47Z</time>
      </trkpt>
      <trkpt lat="44.81973" lon="-0.34563">
        <ele>48</ele>
        <time>2016-05-28T06:57:15Z</time>
      </trkpt>
      <trkpt lat="44.81975" lon="-0.34564">
        <ele>48</ele>
        <time>2016-05-28T06:57:39Z</time>
      </trkpt>
      <trkpt lat="44.81976" lon="-0.34564">
        <ele>48</ele>
        <time>2016-05-28T06:58:03Z</time>
      </trkpt>
      <trkpt lat="44.81974" lon="-0.34564">
        <ele>48</ele>
        <time>2016-05-28T06:58:26Z</time>
      </trkpt>
      <trkpt lat="44.81973" lon="-0.34562">
        <ele>48</ele>
        <time>2016-05-28T06:58:48Z</time>
      </trkpt>
      <trkpt lat="44.81974" lon="-0.34562">
        <ele>48</ele>
        <time>2016-05-28T06:59:08Z</time>
      </trkpt>
      <trkpt lat="44.81975" lon="-0.34564">
        <ele>48</ele>
        <time>2016-05-28T06:59:37Z</time>
      </trkpt>
      <trkpt lat="44.81974" lon="-0.34566">
        <ele>48</ele>
        <time>2016-05-28T07:00:09Z</time>
      </trkpt>
      <trkpt lat="44.81975" lon="-0.34575">
        <ele>48</ele>
        <time>2016-05-28T07:00:22Z</time>
      </trkpt>
      <trkpt lat="44.81974" lon="-0.34587">
        <ele>46</ele>
        <time>2016-05-28T07:00:36Z</time>
      </trkpt>
      <trkpt lat="44.81976" lon="-0.34588">
        <ele>46</ele>
        <time>2016-05-28T07:00:39Z</time>
      </trkpt>
      <trkpt lat="44.81994" lon="-0.34585">
        <ele>46</ele>
        <time>2016-05-28T07:00:56Z</time>
      </trkpt>
      <trkpt lat="44.81997" lon="-0.34585">
        <ele>46</ele>
        <time>2016-05-28T07:00:59Z</time>
      </trkpt>
      <trkpt lat="44.82008" lon="-0.34597">
        <ele>45</ele>
        <time>2016-05-28T07:01:11Z</time>
      </trkpt>
      <trkpt lat="44.82021" lon="-0.34625">
        <ele>45</ele>
        <time>2016-05-28T07:01:30Z</time>
      </trkpt>
      <trkpt lat="44.8203" lon="-0.34655">
        <ele>44</ele>
        <time>2016-05-28T07:01:48Z</time>
      </trkpt>
      <trkpt lat="44.82036" lon="-0.34673">
        <ele>42</ele>
        <time>2016-05-28T07:02:00Z</time>
      </trkpt>
      <trkpt lat="44.82036" lon="-0.34676">
        <ele>42</ele>
        <time>2016-05-28T07:02:03Z</time>
      </trkpt>
      <trkpt lat="44.82041" lon="-0.34711">
        <ele>41</ele>
        <time>2016-05-28T07:02:23Z</time>
      </trkpt>
      <trkpt lat="44.82046" lon="-0.34742">
        <ele>40</ele>
        <time>2016-05-28T07:02:42Z</time>
      </trkpt>
      <trkpt lat="44.82045" lon="-0.34765">
        <ele>39</ele>
        <time>2016-05-28T07:02:56Z</time>
      </trkpt>
      <trkpt lat="44.82044" lon="-0.3477">
        <ele>39</ele>
        <time>2016-05-28T07:03:00Z</time>
      </trkpt>
      <trkpt lat="44.82026" lon="-0.34782">
        <ele>39</ele>
        <time>2016-05-28T07:03:17Z</time>
      </trkpt>
      <trkpt lat="44.82" lon="-0.34786">
        <ele>39</ele>
        <time>2016-05-28T07:03:36Z</time>
      </trkpt>
      <trkpt lat="44.81984" lon="-0.34787">
        <ele>39</ele>
        <time>2016-05-28T07:03:50Z</time>
      </trkpt>
      <trkpt lat="44.81965" lon="-0.34787">
        <ele>39</ele>
        <time>2016-05-28T07:04:04Z</time>
      </trkpt>
      <trkpt lat="44.8196" lon="-0.34787">
        <ele>39</ele>
        <time>2016-05-28T07:04:08Z</time>
      </trkpt>
      <trkpt lat="44.81941" lon="-0.34787">
        <ele>39</ele>
        <time>2016-05-28T07:04:22Z</time>
      </trkpt>
      <trkpt lat="44.81922" lon="-0.34787">
        <ele>39</ele>
        <time>2016-05-28T07:04:36Z</time>
      </trkpt>
      <trkpt lat="44.81899" lon="-0.34787">
        <ele>40</ele>
        <time>2016-05-28T07:04:53Z</time>
      </trkpt>
      <trkpt lat="44.81879" lon="-0.34787">
        <ele>41</ele>
        <time>2016-05-28T07:05:08Z</time>
      </trkpt>
      <trkpt lat="44.81855" lon="-0.34789">
        <ele>41</ele>
        <time>2016-05-28T07:05:25Z</time>
      </trkpt>
      <trkpt lat="44.81831" lon="-0.34793">
        <ele>43</ele>
        <time>2016-05-28T07:05:44Z</time>
      </trkpt>
      <trkpt lat="44.81813" lon="-0.34798">
        <ele>43</ele>
        <time>2016-05-28T07:05:58Z</time>
      </trkpt>
      <trkpt lat="44.81788" lon="-0.34805">
        <ele>43</ele>
        <time>2016-05-28T07:06:16Z</time>
      </trkpt>
      <trkpt lat="44.81762" lon="-0.34811">
        <ele>42</ele>
        <time>2016-05-28T07:06:35Z</time>
      </trkpt>
      <trkpt lat="44.81738" lon="-0.34813">
        <ele>44</ele>
        <time>2016-05-28T07:06:53Z</time>
      </trkpt>
      <trkpt lat="44.81714" lon="-0.3482">
        <ele>44</ele>
        <time>2016-05-28T07:07:11Z</time>
      </trkpt>
      <trkpt lat="44.81705" lon="-0.34822">
        <ele>45</ele>
        <time>2016-05-28T07:07:18Z</time>
      </trkpt>
      <trkpt lat="44.81694" lon="-0.34826">
        <ele>45</ele>
        <time>2016-05-28T07:07:30Z</time>
      </trkpt>
      <trkpt lat="44.81682" lon="-0.3483">
        <ele>45</ele>
        <time>2016-05-28T07:07:43Z</time>
      </trkpt>
      <trkpt lat="44.81682" lon="-0.34832">
        <ele>45</ele>
        <time>2016-05-28T07:07:45Z</time>
      </trkpt>
      <trkpt lat="44.81669" lon="-0.34848">
        <ele>44</ele>
        <time>2016-05-28T07:07:59Z</time>
      </trkpt>
      <trkpt lat="44.81657" lon="-0.34869">
        <ele>45</ele>
        <time>2016-05-28T07:08:15Z</time>
      </trkpt>
      <trkpt lat="44.81656" lon="-0.34872">
        <ele>45</ele>
        <time>2016-05-28T07:08:17Z</time>
      </trkpt>
      <trkpt lat="44.81644" lon="-0.34896">
        <ele>44</ele>
        <time>2016-05-28T07:08:33Z</time>
      </trkpt>
      <trkpt lat="44.8164" lon="-0.34905">
        <ele>44</ele>
        <time>2016-05-28T07:08:39Z</time>
      </trkpt>
      <trkpt lat="44.81638" lon="-0.34913">
        <ele>44</ele>
        <time>2016-05-28T07:08:44Z</time>
      </trkpt>
      <trkpt lat="44.81628" lon="-0.34928">
        <ele>42</ele>
        <time>2016-05-28T07:08:55Z</time>
      </trkpt>
      <trkpt lat="44.81627" lon="-0.34931">
        <ele>42</ele>
        <time>2016-05-28T07:08:57Z</time>
      </trkpt>
      <trkpt lat="44.81618" lon="-0.34958">
        <ele>41</ele>
        <time>2016-05-28T07:09:14Z</time>
      </trkpt>
      <trkpt lat="44.81615" lon="-0.34985">
        <ele>41</ele>
        <time>2016-05-28T07:09:29Z</time>
      </trkpt>
      <trkpt lat="44.81614" lon="-0.3501">
        <ele>40</ele>
        <time>2016-05-28T07:09:43Z</time>
      </trkpt>
      <trkpt lat="44.81611" lon="-0.35038">
        <ele>40</ele>
        <time>2016-05-28T07:09:58Z</time>
      </trkpt>
      <trkpt lat="44.8161" lon="-0.35065">
        <ele>40</ele>
        <time>2016-05-28T07:10:13Z</time>
      </trkpt>
      <trkpt lat="44.81609" lon="-0.35096">
        <ele>43</ele>
        <time>2016-05-28T07:10:30Z</time>
      </trkpt>
      <trkpt lat="44.81611" lon="-0.351">
        <ele>44</ele>
        <time>2016-05-28T07:10:33Z</time>
      </trkpt>
      <trkpt lat="44.81619" lon="-0.35104">
        <ele>44</ele>
        <time>2016-05-28T07:10:39Z</time>
      </trkpt>
      <trkpt lat="44.81636" lon="-0.35103">
        <ele>45</ele>
        <time>2016-05-28T07:10:54Z</time>
      </trkpt>
      <trkpt lat="44.81651" lon="-0.351">
        <ele>45</ele>
        <time>2016-05-28T07:11:09Z</time>
      </trkpt>
      <trkpt lat="44.81663" lon="-0.35097">
        <ele>45</ele>
        <time>2016-05-28T07:11:24Z</time>
      </trkpt>
      <trkpt lat="44.81672" lon="-0.35091">
        <ele>47</ele>
        <time>2016-05-28T07:11:35Z</time>
      </trkpt>
      <trkpt lat="44.81681" lon="-0.35089">
        <ele>48</ele>
        <time>2016-05-28T07:11:43Z</time>
      </trkpt>
      <trkpt lat="44.81697" lon="-0.35081">
        <ele>46</ele>
        <time>2016-05-28T07:12:01Z</time>
      </trkpt>
      <trkpt lat="44.81699" lon="-0.35081">
        <ele>46</ele>
        <time>2016-05-28T07:12:03Z</time>
      </trkpt>
      <trkpt lat="44.81716" lon="-0.35074">
        <ele>46</ele>
        <time>2016-05-28T07:12:20Z</time>
      </trkpt>
      <trkpt lat="44.81734" lon="-0.35065">
        <ele>47</ele>
        <time>2016-05-28T07:12:37Z</time>
      </trkpt>
      <trkpt lat="44.81748" lon="-0.35059">
        <ele>47</ele>
        <time>2016-05-28T07:12:47Z</time>
      </trkpt>
      <trkpt lat="44.81755" lon="-0.35059">
        <ele>46</ele>
        <time>2016-05-28T07:12:53Z</time>
      </trkpt>
      <trkpt lat="44.81765" lon="-0.35055">
        <ele>45</ele>
        <time>2016-05-28T07:13:06Z</time>
      </trkpt>
      <trkpt lat="44.81776" lon="-0.35062">
        <ele>45</ele>
        <time>2016-05-28T07:13:18Z</time>
      </trkpt>
      <trkpt lat="44.81784" lon="-0.35069">
        <ele>45</ele>
        <time>2016-05-28T07:13:26Z</time>
      </trkpt>
      <trkpt lat="44.81796" lon="-0.35092">
        <ele>48</ele>
        <time>2016-05-28T07:13:43Z</time>
      </trkpt>
      <trkpt lat="44.81805" lon="-0.3511">
        <ele>48</ele>
        <time>2016-05-28T07:13:54Z</time>
      </trkpt>
      <trkpt lat="44.81815" lon="-0.3513">
        <ele>49</ele>
        <time>2016-05-28T07:14:07Z</time>
      </trkpt>
      <trkpt lat="44.81817" lon="-0.35133">
        <ele>49</ele>
        <time>2016-05-28T07:14:10Z</time>
      </trkpt>
      <trkpt lat="44.81818" lon="-0.35148">
        <ele>49</ele>
        <time>2016-05-28T07:14:20Z</time>
      </trkpt>
      <trkpt lat="44.81817" lon="-0.35172">
        <ele>50</ele>
        <time>2016-05-28T07:14:33Z</time>
      </trkpt>
      <trkpt lat="44.81817" lon="-0.35178">
        <ele>50</ele>
        <time>2016-05-28T07:14:36Z</time>
      </trkpt>
      <trkpt lat="44.81815" lon="-0.35202">
        <ele>51</ele>
        <time>2016-05-28T07:14:52Z</time>
      </trkpt>
      <trkpt lat="44.81814" lon="-0.35207">
        <ele>51</ele>
        <time>2016-05-28T07:14:55Z</time>
      </trkpt>
      <trkpt lat="44.81815" lon="-0.35227">
        <ele>50</ele>
        <time>2016-05-28T07:15:02Z</time>
      </trkpt>
      <trkpt lat="44.81808" lon="-0.35247">
        <ele>49</ele>
        <time>2016-05-28T07:15:18Z</time>
      </trkpt>
      <trkpt lat="44.81806" lon="-0.35263">
        <ele>48</ele>
        <time>2016-05-28T07:15:33Z</time>
      </trkpt>
      <trkpt lat="44.81811" lon="-0.35268">
        <ele>48</ele>
        <time>2016-05-28T07:15:41Z</time>
      </trkpt>
      <trkpt lat="44.81821" lon="-0.35289">
        <ele>47</ele>
        <time>2016-05-28T07:15:54Z</time>
      </trkpt>
      <trkpt lat="44.81826" lon="-0.35297">
        <ele>47</ele>
        <time>2016-05-28T07:16:01Z</time>
      </trkpt>
      <trkpt lat="44.81826" lon="-0.35299">
        <ele>47</ele>
        <time>2016-05-28T07:16:02Z</time>
      </trkpt>
      <trkpt lat="44.81836" lon="-0.35326">
        <ele>42</ele>
        <time>2016-05-28T07:16:18Z</time>
      </trkpt>
      <trkpt lat="44.81842" lon="-0.35333">
        <ele>42</ele>
        <time>2016-05-28T07:16:25Z</time>
      </trkpt>
      <trkpt lat="44.81847" lon="-0.35337">
        <ele>42</ele>
        <time>2016-05-28T07:16:29Z</time>
      </trkpt>
      <trkpt lat="44.81866" lon="-0.35332">
        <ele>43</ele>
        <time>2016-05-28T07:16:46Z</time>
      </trkpt>
      <trkpt lat="44.81876" lon="-0.35314">
        <ele>43</ele>
        <time>2016-05-28T07:17:00Z</time>
      </trkpt>
      <trkpt lat="44.81891" lon="-0.35294">
        <ele>43</ele>
        <time>2016-05-28T07:17:15Z</time>
      </trkpt>
      <trkpt lat="44.81903" lon="-0.35293">
        <ele>43</ele>
        <time>2016-05-28T07:17:29Z</time>
      </trkpt>
      <trkpt lat="44.81912" lon="-0.35303">
        <ele>43</ele>
        <time>2016-05-28T07:17:42Z</time>
      </trkpt>
      <trkpt lat="44.81924" lon="-0.35311">
        <ele>45</ele>
        <time>2016-05-28T07:17:55Z</time>
      </trkpt>
      <trkpt lat="44.81928" lon="-0.35319">
        <ele>45</ele>
        <time>2016-05-28T07:18:09Z</time>
      </trkpt>
      <trkpt lat="44.81951" lon="-0.35348">
        <ele>46</ele>
        <time>2016-05-28T07:18:26Z</time>
      </trkpt>
      <trkpt lat="44.81965" lon="-0.35364">
        <ele>46</ele>
        <time>2016-05-28T07:18:41Z</time>
      </trkpt>
      <trkpt lat="44.8197" lon="-0.35369">
        <ele>46</ele>
        <time>2016-05-28T07:18:46Z</time>
      </trkpt>
      <trkpt lat="44.81977" lon="-0.35374">
        <ele>47</ele>
        <time>2016-05-28T07:18:53Z</time>
      </trkpt>
      <trkpt lat="44.81994" lon="-0.35388">
        <ele>47</ele>
        <time>2016-05-28T07:19:08Z</time>
      </trkpt>
      <trkpt lat="44.82009" lon="-0.35399">
        <ele>48</ele>
        <time>2016-05-28T07:19:21Z</time>
      </trkpt>
      <trkpt lat="44.82019" lon="-0.35396">
        <ele>48</ele>
        <time>2016-05-28T07:19:44Z</time>
      </trkpt>
      <trkpt lat="44.82026" lon="-0.35407">
        <ele>48</ele>
        <time>2016-05-28T07:20:04Z</time>
      </trkpt>
      <trkpt lat="44.82033" lon="-0.35417">
        <ele>48</ele>
        <time>2016-05-28T07:20:19Z</time>
      </trkpt>
      <trkpt lat="44.82045" lon="-0.35434">
        <ele>49</ele>
        <time>2016-05-28T07:20:35Z</time>
      </trkpt>
      <trkpt lat="44.82058" lon="-0.35453">
        <ele>50</ele>
        <time>2016-05-28T07:20:50Z</time>
      </trkpt>
      <trkpt lat="44.82067" lon="-0.35469">
        <ele>50</ele>
        <time>2016-05-28T07:21:05Z</time>
      </trkpt>
      <trkpt lat="44.82077" lon="-0.35487">
        <ele>50</ele>
        <time>2016-05-28T07:21:21Z</time>
      </trkpt>
      <trkpt lat="44.82089" lon="-0.35509">
        <ele>52</ele>
        <time>2016-05-28T07:21:37Z</time>
      </trkpt>
      <trkpt lat="44.82099" lon="-0.35534">
        <ele>53</ele>
        <time>2016-05-28T07:21:53Z</time>
      </trkpt>
      <trkpt lat="44.82106" lon="-0.35557">
        <ele>53</ele>
        <time>2016-05-28T07:22:08Z</time>
      </trkpt>
      <trkpt lat="44.82108" lon="-0.35572">
        <ele>53</ele>
        <time>2016-05-28T07:22:20Z</time>
      </trkpt>
      <trkpt lat="44.8211" lon="-0.35594">
        <ele>56</ele>
        <time>2016-05-28T07:22:36Z</time>
      </trkpt>
      <trkpt lat="44.82113" lon="-0.35621">
        <ele>56</ele>
        <time>2016-05-28T07:22:51Z</time>
      </trkpt>
      <trkpt lat="44.82115" lon="-0.35632">
        <ele>56</ele>
        <time>2016-05-28T07:22:55Z</time>
      </trkpt>
      <trkpt lat="44.82118" lon="-0.35671">
        <ele>59</ele>
        <time>2016-05-28T07:23:14Z</time>
      </trkpt>
      <trkpt lat="44.82119" lon="-0.35686">
        <ele>59</ele>
        <time>2016-05-28T07:23:22Z</time>
      </trkpt>
      <trkpt lat="44.82121" lon="-0.35696">
        <ele>59</ele>
        <time>2016-05-28T07:23:27Z</time>
      </trkpt>
      <trkpt lat="44.82124" lon="-0.35733">
        <ele>59</ele>
        <time>2016-05-28T07:23:45Z</time>
      </trkpt>
      <trkpt lat="44.82127" lon="-0.35773">
        <ele>60</ele>
        <time>2016-05-28T07:24:04Z</time>
      </trkpt>
      <trkpt lat="44.82128" lon="-0.35784">
        <ele>60</ele>
        <time>2016-05-28T07:24:12Z</time>
      </trkpt>
      <trkpt lat="44.82132" lon="-0.35786">
        <ele>60</ele>
        <time>2016-05-28T07:24:28Z</time>
      </trkpt>
      <trkpt lat="44.82144" lon="-0.35783">
        <ele>60</ele>
        <time>2016-05-28T07:24:41Z</time>
      </trkpt>
      <trkpt lat="44.82152" lon="-0.35781">
        <ele>60</ele>
        <time>2016-05-28T07:24:48Z</time>
      </trkpt>
      <trkpt lat="44.8217" lon="-0.35777">
        <ele>61</ele>
        <time>2016-05-28T07:25:03Z</time>
      </trkpt>
      <trkpt lat="44.8219" lon="-0.35769">
        <ele>61</ele>
        <time>2016-05-28T07:25:20Z</time>
      </trkpt>
      <trkpt lat="44.822" lon="-0.35763">
        <ele>61</ele>
        <time>2016-05-28T07:25:32Z</time>
      </trkpt>
      <trkpt lat="44.82208" lon="-0.35748">
        <ele>59</ele>
        <time>2016-05-28T07:25:46Z</time>
      </trkpt>
      <trkpt lat="44.82222" lon="-0.35731">
        <ele>59</ele>
        <time>2016-05-28T07:26:01Z</time>
      </trkpt>
      <trkpt lat="44.82232" lon="-0.35716">
        <ele>59</ele>
        <time>2016-05-28T07:26:13Z</time>
      </trkpt>
      <trkpt lat="44.82244" lon="-0.35698">
        <ele>59</ele>
        <time>2016-05-28T07:26:26Z</time>
      </trkpt>
      <trkpt lat="44.82257" lon="-0.35682">
        <ele>59</ele>
        <time>2016-05-28T07:26:39Z</time>
      </trkpt>
      <trkpt lat="44.82268" lon="-0.35671">
        <ele>59</ele>
        <time>2016-05-28T07:26:51Z</time>
      </trkpt>
      <trkpt lat="44.82282" lon="-0.35648">
        <ele>58</ele>
        <time>2016-05-28T07:27:08Z</time>
      </trkpt>
      <trkpt lat="44.82297" lon="-0.35628">
        <ele>58</ele>
        <time>2016-05-28T07:27:28Z</time>
      </trkpt>
      <trkpt lat="44.82307" lon="-0.35617">
        <ele>57</ele>
        <time>2016-05-28T07:27:43Z</time>
      </trkpt>
      <trkpt lat="44.82313" lon="-0.35607">
        <ele>57</ele>
        <time>2016-05-28T07:27:51Z</time>
      </trkpt>
      <trkpt lat="44.82326" lon="-0.35588">
        <ele>56</ele>
        <time>2016-05-28T07:28:07Z</time>
      </trkpt>
      <trkpt lat="44.8234" lon="-0.35574">
        <ele>55</ele>
        <time>2016-05-28T07:28:23Z</time>
      </trkpt>
      <trkpt lat="44.82351" lon="-0.35561">
        <ele>54</ele>
        <time>2016-05-28T07:28:38Z</time>
      </trkpt>
      <trkpt lat="44.82364" lon="-0.3554">
        <ele>53</ele>
        <time>2016-05-28T07:28:57Z</time>
      </trkpt>
      <trkpt lat="44.82376" lon="-0.35522">
        <ele>53</ele>
        <time>2016-05-28T07:29:13Z</time>
      </trkpt>
      <trkpt lat="44.82386" lon="-0.35507">
        <ele>53</ele>
        <time>2016-05-28T07:29:29Z</time>
      </trkpt>
      <trkpt lat="44.82399" lon="-0.35488">
        <ele>51</ele>
        <time>2016-05-28T07:29:46Z</time>
      </trkpt>
      <trkpt lat="44.82414" lon="-0.35471">
        <ele>50</ele>
        <time>2016-05-28T07:30:01Z</time>
      </trkpt>
      <trkpt lat="44.8242" lon="-0.35462">
        <ele>50</ele>
        <time>2016-05-28T07:30:07Z</time>
      </trkpt>
      <trkpt lat="44.82435" lon="-0.35441">
        <ele>49</ele>
        <time>2016-05-28T07:30:23Z</time>
      </trkpt>
      <trkpt lat="44.82437" lon="-0.35438">
        <ele>49</ele>
        <time>2016-05-28T07:30:25Z</time>
      </trkpt>
      <trkpt lat="44.82453" lon="-0.35413">
        <ele>46</ele>
        <time>2016-05-28T07:30:42Z</time>
      </trkpt>
      <trkpt lat="44.82466" lon="-0.35392">
        <ele>45</ele>
        <time>2016-05-28T07:30:58Z</time>
      </trkpt>
      <trkpt lat="44.82483" lon="-0.35368">
        <ele>44</ele>
        <time>2016-05-28T07:31:16Z</time>
      </trkpt>
      <trkpt lat="44.82496" lon="-0.35346">
        <ele>42</ele>
        <time>2016-05-28T07:31:34Z</time>
      </trkpt>
      <trkpt lat="44.82502" lon="-0.35338">
        <ele>41</ele>
        <time>2016-05-28T07:31:48Z</time>
      </trkpt>
      <trkpt lat="44.82505" lon="-0.35336">
        <ele>41</ele>
        <time>2016-05-28T07:31:56Z</time>
      </trkpt>
      <trkpt lat="44.82528" lon="-0.35345">
        <ele>40</ele>
        <time>2016-05-28T07:32:17Z</time>
      </trkpt>
      <trkpt lat="44.82546" lon="-0.35347">
        <ele>38</ele>
        <time>2016-05-28T07:32:34Z</time>
      </trkpt>
      <trkpt lat="44.82552" lon="-0.35351">
        <ele>38</ele>
        <time>2016-05-28T07:32:39Z</time>
      </trkpt>
      <trkpt lat="44.8258" lon="-0.35361">
        <ele>37</ele>
        <time>2016-05-28T07:32:59Z</time>
      </trkpt>
      <trkpt lat="44.82602" lon="-0.35376">
        <ele>33</ele>
        <time>2016-05-28T07:33:16Z</time>
      </trkpt>
      <trkpt lat="44.82628" lon="-0.35396">
        <ele>33</ele>
        <time>2016-05-28T07:33:34Z</time>
      </trkpt>
      <trkpt lat="44.82646" lon="-0.35418">
        <ele>33</ele>
        <time>2016-05-28T07:33:51Z</time>
      </trkpt>
      <trkpt lat="44.82661" lon="-0.35444">
        <ele>33</ele>
        <time>2016-05-28T07:34:07Z</time>
      </trkpt>
      <trkpt lat="44.82667" lon="-0.35459">
        <ele>33</ele>
        <time>2016-05-28T07:34:19Z</time>
      </trkpt>
      <trkpt lat="44.82669" lon="-0.35462">
        <ele>33</ele>
        <time>2016-05-28T07:34:22Z</time>
      </trkpt>
      <trkpt lat="44.82678" lon="-0.35491">
        <ele>33</ele>
        <time>2016-05-28T07:34:41Z</time>
      </trkpt>
      <trkpt lat="44.82685" lon="-0.35526">
        <ele>34</ele>
        <time>2016-05-28T07:34:58Z</time>
      </trkpt>
      <trkpt lat="44.82696" lon="-0.35565">
        <ele>34</ele>
        <time>2016-05-28T07:35:17Z</time>
      </trkpt>
      <trkpt lat="44.82702" lon="-0.35582">
        <ele>34</ele>
        <time>2016-05-28T07:35:35Z</time>
      </trkpt>
      <trkpt lat="44.82704" lon="-0.3559">
        <ele>36</ele>
        <time>2016-05-28T07:35:49Z</time>
      </trkpt>
      <trkpt lat="44.82718" lon="-0.35612">
        <ele>36</ele>
        <time>2016-05-28T07:36:06Z</time>
      </trkpt>
      <trkpt lat="44.82722" lon="-0.35619">
        <ele>36</ele>
        <time>2016-05-28T07:36:10Z</time>
      </trkpt>
      <trkpt lat="44.82738" lon="-0.35646">
        <ele>37</ele>
        <time>2016-05-28T07:36:29Z</time>
      </trkpt>
      <trkpt lat="44.82752" lon="-0.35674">
        <ele>38</ele>
        <time>2016-05-28T07:36:48Z</time>
      </trkpt>
      <trkpt lat="44.82765" lon="-0.3571">
        <ele>39</ele>
        <time>2016-05-28T07:37:07Z</time>
      </trkpt>
      <trkpt lat="44.82776" lon="-0.35744">
        <ele>39</ele>
        <time>2016-05-28T07:37:26Z</time>
      </trkpt>
      <trkpt lat="44.82784" lon="-0.3577">
        <ele>40</ele>
        <time>2016-05-28T07:37:41Z</time>
      </trkpt>
      <trkpt lat="44.8279" lon="-0.35787">
        <ele>40</ele>
        <time>2016-05-28T07:37:55Z</time>
      </trkpt>
      <trkpt lat="44.82799" lon="-0.35814">
        <ele>39</ele>
        <time>2016-05-28T07:38:11Z</time>
      </trkpt>
      <trkpt lat="44.82809" lon="-0.35845">
        <ele>39</ele>
        <time>2016-05-28T07:38:29Z</time>
      </trkpt>
      <trkpt lat="44.82819" lon="-0.35873">
        <ele>39</ele>
        <time>2016-05-28T07:38:46Z</time>
      </trkpt>
      <trkpt lat="44.8283" lon="-0.35899">
        <ele>38</ele>
        <time>2016-05-28T07:39:03Z</time>
      </trkpt>
      <trkpt lat="44.82848" lon="-0.35929">
        <ele>35</ele>
        <time>2016-05-28T07:39:22Z</time>
      </trkpt>
      <trkpt lat="44.82864" lon="-0.35958">
        <ele>35</ele>
        <time>2016-05-28T07:39:39Z</time>
      </trkpt>
      <trkpt lat="44.82881" lon="-0.35986">
        <ele>34</ele>
        <time>2016-05-28T07:39:57Z</time>
      </trkpt>
      <trkpt lat="44.82885" lon="-0.35998">
        <ele>33</ele>
        <time>2016-05-28T07:40:04Z</time>
      </trkpt>
      <trkpt lat="44.82889" lon="-0.36002">
        <ele>34</ele>
        <time>2016-05-28T07:40:08Z</time>
      </trkpt>
      <trkpt lat="44.82901" lon="-0.36023">
        <ele>34</ele>
        <time>2016-05-28T07:40:23Z</time>
      </trkpt>
      <trkpt lat="44.82915" lon="-0.36058">
        <ele>36</ele>
        <time>2016-05-28T07:40:44Z</time>
      </trkpt>
      <trkpt lat="44.82924" lon="-0.36089">
        <ele>36</ele>
        <time>2016-05-28T07:41:01Z</time>
      </trkpt>
      <trkpt lat="44.82936" lon="-0.3612">
        <ele>36</ele>
        <time>2016-05-28T07:41:19Z</time>
      </trkpt>
      <trkpt lat="44.82953" lon="-0.36147">
        <ele>36</ele>
        <time>2016-05-28T07:41:37Z</time>
      </trkpt>
      <trkpt lat="44.82972" lon="-0.36167">
        <ele>37</ele>
        <time>2016-05-28T07:41:53Z</time>
      </trkpt>
      <trkpt lat="44.8299" lon="-0.36183">
        <ele>37</ele>
        <time>2016-05-28T07:42:08Z</time>
      </trkpt>
      <trkpt lat="44.83009" lon="-0.36204">
        <ele>37</ele>
        <time>2016-05-28T07:42:25Z</time>
      </trkpt>
      <trkpt lat="44.83013" lon="-0.36227">
        <ele>38</ele>
        <time>2016-05-28T07:42:39Z</time>
      </trkpt>
      <trkpt lat="44.83012" lon="-0.36248">
        <ele>38</ele>
        <time>2016-05-28T07:42:50Z</time>
      </trkpt>
      <trkpt lat="44.83011" lon="-0.36254">
        <ele>39</ele>
        <time>2016-05-28T07:42:54Z</time>
      </trkpt>
      <trkpt lat="44.83006" lon="-0.36283">
        <ele>39</ele>
        <time>2016-05-28T07:43:11Z</time>
      </trkpt>
      <trkpt lat="44.82996" lon="-0.36296">
        <ele>41</ele>
        <time>2016-05-28T07:43:27Z</time>
      </trkpt>
      <trkpt lat="44.82994" lon="-0.36298">
        <ele>41</ele>
        <time>2016-05-28T07:43:54Z</time>
      </trkpt>
      <trkpt lat="44.82992" lon="-0.363">
        <ele>41</ele>
        <time>2016-05-28T07:44:10Z</time>
      </trkpt>
      <trkpt lat="44.82991" lon="-0.36297">
        <ele>41</ele>
        <time>2016-05-28T07:44:22Z</time>
      </trkpt>
      <trkpt lat="44.8299" lon="-0.36294">
        <ele>41</ele>
        <time>2016-05-28T07:44:40Z</time>
      </trkpt>
      <trkpt lat="44.82991" lon="-0.36293">
        <ele>41</ele>
        <time>2016-05-28T07:44:56Z</time>
      </trkpt>
      <trkpt lat="44.82992" lon="-0.36293">
        <ele>41</ele>
        <time>2016-05-28T07:45:11Z</time>
      </trkpt>
      <trkpt lat="44.82993" lon="-0.36292">
        <ele>41</ele>
        <time>2016-05-28T07:45:32Z</time>
      </trkpt>
      <trkpt lat="44.82987" lon="-0.363">
        <ele>41</ele>
        <time>2016-05-28T07:45:51Z</time>
      </trkpt>
      <trkpt lat="44.82969" lon="-0.36314">
        <ele>41</ele>
        <time>2016-05-28T07:46:08Z</time>
      </trkpt>
      <trkpt lat="44.82948" lon="-0.36332">
        <ele>42</ele>
        <time>2016-05-28T07:46:27Z</time>
      </trkpt>
      <trkpt lat="44.8293" lon="-0.36345">
        <ele>44</ele>
        <time>2016-05-28T07:46:43Z</time>
      </trkpt>
      <trkpt lat="44.82914" lon="-0.36358">
        <ele>47</ele>
        <time>2016-05-28T07:46:58Z</time>
      </trkpt>
      <trkpt lat="44.82894" lon="-0.3637">
        <ele>48</ele>
        <time>2016-05-28T07:47:14Z</time>
      </trkpt>
      <trkpt lat="44.82873" lon="-0.36377">
        <ele>49</ele>
        <time>2016-05-28T07:47:30Z</time>
      </trkpt>
      <trkpt lat="44.82851" lon="-0.36373">
        <ele>50</ele>
        <time>2016-05-28T07:47:47Z</time>
      </trkpt>
      <trkpt lat="44.82841" lon="-0.36364">
        <ele>50</ele>
        <time>2016-05-28T07:47:57Z</time>
      </trkpt>
      <trkpt lat="44.82828" lon="-0.36359">
        <ele>52</ele>
        <time>2016-05-28T07:48:11Z</time>
      </trkpt>
      <trkpt lat="44.82814" lon="-0.36344">
        <ele>52</ele>
        <time>2016-05-28T07:48:25Z</time>
      </trkpt>
      <trkpt lat="44.82799" lon="-0.36337">
        <ele>53</ele>
        <time>2016-05-28T07:48:38Z</time>
      </trkpt>
      <trkpt lat="44.82792" lon="-0.36339">
        <ele>53</ele>
        <time>2016-05-28T07:48:54Z</time>
      </trkpt>
      <trkpt lat="44.82792" lon="-0.36341">
        <ele>53</ele>
        <time>2016-05-28T07:49:00Z</time>
      </trkpt>
      <trkpt lat="44.82792" lon="-0.36367">
        <ele>53</ele>
        <time>2016-05-28T07:49:17Z</time>
      </trkpt>
      <trkpt lat="44.82796" lon="-0.36391">
        <ele>54</ele>
        <time>2016-05-28T07:49:32Z</time>
      </trkpt>
      <trkpt lat="44.82804" lon="-0.36422">
        <ele>56</ele>
        <time>2016-05-28T07:49:50Z</time>
      </trkpt>
      <trkpt lat="44.82805" lon="-0.36435">
        <ele>56</ele>
        <time>2016-05-28T07:49:57Z</time>
      </trkpt>
      <trkpt lat="44.82811" lon="-0.3647">
        <ele>57</ele>
        <time>2016-05-28T07:50:16Z</time>
      </trkpt>
      <trkpt lat="44.8282" lon="-0.36497">
        <ele>58</ele>
        <time>2016-05-28T07:50:35Z</time>
      </trkpt>
      <trkpt lat="44.82816" lon="-0.36499">
        <ele>58</ele>
        <time>2016-05-28T07:50:41Z</time>
      </trkpt>
      <trkpt lat="44.82815" lon="-0.365">
        <ele>60</ele>
        <time>2016-05-28T07:50:43Z</time>
      </trkpt>
      <trkpt lat="44.82821" lon="-0.36527">
        <ele>61</ele>
        <time>2016-05-28T07:51:01Z</time>
      </trkpt>
      <trkpt lat="44.82827" lon="-0.36553">
        <ele>62</ele>
        <time>2016-05-28T07:51:18Z</time>
      </trkpt>
      <trkpt lat="44.82836" lon="-0.36578">
        <ele>63</ele>
        <time>2016-05-28T07:51:34Z</time>
      </trkpt>
      <trkpt lat="44.82846" lon="-0.36601">
        <ele>62</ele>
        <time>2016-05-28T07:51:50Z</time>
      </trkpt>
      <trkpt lat="44.82853" lon="-0.36627">
        <ele>62</ele>
        <time>2016-05-28T07:52:06Z</time>
      </trkpt>
      <trkpt lat="44.82855" lon="-0.36634">
        <ele>62</ele>
        <time>2016-05-28T07:52:11Z</time>
      </trkpt>
      <trkpt lat="44.82855" lon="-0.36641">
        <ele>62</ele>
        <time>2016-05-28T07:52:15Z</time>
      </trkpt>
      <trkpt lat="44.82853" lon="-0.36668">
        <ele>64</ele>
        <time>2016-05-28T07:52:32Z</time>
      </trkpt>
      <trkpt lat="44.82851" lon="-0.36694">
        <ele>64</ele>
        <time>2016-05-28T07:52:47Z</time>
      </trkpt>
      <trkpt lat="44.82848" lon="-0.36728">
        <ele>64</ele>
        <time>2016-05-28T07:53:06Z</time>
      </trkpt>
      <trkpt lat="44.82847" lon="-0.36756">
        <ele>67</ele>
        <time>2016-05-28T07:53:23Z</time>
      </trkpt>
      <trkpt lat="44.82846" lon="-0.36785">
        <ele>67</ele>
        <time>2016-05-28T07:53:40Z</time>
      </trkpt>
      <trkpt lat="44.82845" lon="-0.3679">
        <ele>67</ele>
        <time>2016-05-28T07:53:43Z</time>
      </trkpt>
      <trkpt lat="44.82829" lon="-0.36801">
        <ele>69</ele>
        <time>2016-05-28T07:53:58Z</time>
      </trkpt>
      <trkpt lat="44.82816" lon="-0.3681">
        <ele>70</ele>
        <time>2016-05-28T07:54:11Z</time>
      </trkpt>
      <trkpt lat="44.8281" lon="-0.3682">
        <ele>70</ele>
        <time>2016-05-28T07:54:19Z</time>
      </trkpt>
      <trkpt lat="44.82807" lon="-0.3682">
        <ele>70</ele>
        <time>2016-05-28T07:54:22Z</time>
      </trkpt>
      <trkpt lat="44.82801" lon="-0.36818">
        <ele>69</ele>
        <time>2016-05-28T07:54:33Z</time>
      </trkpt>
      <trkpt lat="44.82799" lon="-0.36816">
        <ele>69</ele>
        <time>2016-05-28T07:54:44Z</time>
      </trkpt>
      <trkpt lat="44.82799" lon="-0.36817">
        <ele>69</ele>
        <time>2016-05-28T07:55:01Z</time>
      </trkpt>
      <trkpt lat="44.82786" lon="-0.36817">
        <ele>69</ele>
        <time>2016-05-28T07:55:15Z</time>
      </trkpt>
      <trkpt lat="44.82772" lon="-0.36818">
        <ele>69</ele>
        <time>2016-05-28T07:55:31Z</time>
      </trkpt>
      <trkpt lat="44.82776" lon="-0.36819">
        <ele>69</ele>
        <time>2016-05-28T07:55:38Z</time>
      </trkpt>
      <trkpt lat="44.82782" lon="-0.36819">
        <ele>69</ele>
        <time>2016-05-28T07:55:44Z</time>
      </trkpt>
      <trkpt lat="44.82791" lon="-0.36819">
        <ele>69</ele>
        <time>2016-05-28T07:55:56Z</time>
      </trkpt>
      <trkpt lat="44.82803" lon="-0.36819">
        <ele>70</ele>
        <time>2016-05-28T07:56:11Z</time>
      </trkpt>
      <trkpt lat="44.8281" lon="-0.36815">
        <ele>70</ele>
        <time>2016-05-28T07:56:20Z</time>
      </trkpt>
      <trkpt lat="44.82809" lon="-0.36811">
        <ele>69</ele>
        <time>2016-05-28T07:56:29Z</time>
      </trkpt>
      <trkpt lat="44.82805" lon="-0.36811">
        <ele>69</ele>
        <time>2016-05-28T07:56:33Z</time>
      </trkpt>
      <trkpt lat="44.82784" lon="-0.36805">
        <ele>69</ele>
        <time>2016-05-28T07:56:52Z</time>
      </trkpt>
      <trkpt lat="44.82764" lon="-0.36803">
        <ele>68</ele>
        <time>2016-05-28T07:57:09Z</time>
      </trkpt>
      <trkpt lat="44.82746" lon="-0.36802">
        <ele>65</ele>
        <time>2016-05-28T07:57:25Z</time>
      </trkpt>
      <trkpt lat="44.82735" lon="-0.36809">
        <ele>66</ele>
        <time>2016-05-28T07:57:36Z</time>
      </trkpt>
      <trkpt lat="44.82731" lon="-0.36813">
        <ele>66</ele>
        <time>2016-05-28T07:57:40Z</time>
      </trkpt>
      <trkpt lat="44.82728" lon="-0.36813">
        <ele>66</ele>
        <time>2016-05-28T07:57:42Z</time>
      </trkpt>
      <trkpt lat="44.82721" lon="-0.36817">
        <ele>65</ele>
        <time>2016-05-28T07:57:49Z</time>
      </trkpt>
      <trkpt lat="44.82718" lon="-0.3682">
        <ele>65</ele>
        <time>2016-05-28T07:57:53Z</time>
      </trkpt>
      <trkpt lat="44.82703" lon="-0.36824">
        <ele>64</ele>
        <time>2016-05-28T07:58:11Z</time>
      </trkpt>
      <trkpt lat="44.82703" lon="-0.36825">
        <ele>64</ele>
        <time>2016-05-28T07:58:21Z</time>
      </trkpt>
      <trkpt lat="44.82689" lon="-0.36837">
        <ele>65</ele>
        <time>2016-05-28T07:58:35Z</time>
      </trkpt>
      <trkpt lat="44.82673" lon="-0.36852">
        <ele>65</ele>
        <time>2016-05-28T07:58:50Z</time>
      </trkpt>
      <trkpt lat="44.82658" lon="-0.36867">
        <ele>60</ele>
        <time>2016-05-28T07:59:05Z</time>
      </trkpt>
      <trkpt lat="44.82653" lon="-0.36869">
        <ele>60</ele>
        <time>2016-05-28T07:59:11Z</time>
      </trkpt>
      <trkpt lat="44.8264" lon="-0.36886">
        <ele>59</ele>
        <time>2016-05-28T07:59:28Z</time>
      </trkpt>
      <trkpt lat="44.82635" lon="-0.36892">
        <ele>59</ele>
        <time>2016-05-28T07:59:42Z</time>
      </trkpt>
      <trkpt lat="44.82625" lon="-0.36909">
        <ele>58</ele>
        <time>2016-05-28T07:59:59Z</time>
      </trkpt>
      <trkpt lat="44.82622" lon="-0.36914">
        <ele>58</ele>
        <time>2016-05-28T08:00:03Z</time>
      </trkpt>
      <trkpt lat="44.8262" lon="-0.36917">
        <ele>57</ele>
        <time>2016-05-28T08:00:05Z</time>
      </trkpt>
      <trkpt lat="44.82608" lon="-0.36946">
        <ele>57</ele>
        <time>2016-05-28T08:00:23Z</time>
      </trkpt>
      <trkpt lat="44.82594" lon="-0.3697">
        <ele>56</ele>
        <time>2016-05-28T08:00:40Z</time>
      </trkpt>
      <trkpt lat="44.82587" lon="-0.36992">
        <ele>55</ele>
        <time>2016-05-28T08:00:56Z</time>
      </trkpt>
      <trkpt lat="44.82574" lon="-0.37014">
        <ele>52</ele>
        <time>2016-05-28T08:01:12Z</time>
      </trkpt>
      <trkpt lat="44.82559" lon="-0.37039">
        <ele>51</ele>
        <time>2016-05-28T08:01:29Z</time>
      </trkpt>
      <trkpt lat="44.82548" lon="-0.37063">
        <ele>51</ele>
        <time>2016-05-28T08:01:44Z</time>
      </trkpt>
      <trkpt lat="44.82535" lon="-0.37074">
        <ele>51</ele>
        <time>2016-05-28T08:01:59Z</time>
      </trkpt>
      <trkpt lat="44.8252" lon="-0.37081">
        <ele>51</ele>
        <time>2016-05-28T08:02:12Z</time>
      </trkpt>
      <trkpt lat="44.82507" lon="-0.37091">
        <ele>51</ele>
        <time>2016-05-28T08:02:25Z</time>
      </trkpt>
      <trkpt lat="44.82491" lon="-0.371">
        <ele>52</ele>
        <time>2016-05-28T08:02:39Z</time>
      </trkpt>
      <trkpt lat="44.82482" lon="-0.37107">
        <ele>53</ele>
        <time>2016-05-28T08:02:54Z</time>
      </trkpt>
      <trkpt lat="44.82467" lon="-0.37117">
        <ele>53</ele>
        <time>2016-05-28T08:03:08Z</time>
      </trkpt>
      <trkpt lat="44.82447" lon="-0.37127">
        <ele>54</ele>
        <time>2016-05-28T08:03:24Z</time>
      </trkpt>
      <trkpt lat="44.82427" lon="-0.37137">
        <ele>54</ele>
        <time>2016-05-28T08:03:40Z</time>
      </trkpt>
      <trkpt lat="44.82418" lon="-0.37141">
        <ele>54</ele>
        <time>2016-05-28T08:03:46Z</time>
      </trkpt>
      <trkpt lat="44.82398" lon="-0.3714">
        <ele>57</ele>
        <time>2016-05-28T08:04:02Z</time>
      </trkpt>
      <trkpt lat="44.82396" lon="-0.3714">
        <ele>57</ele>
        <time>2016-05-28T08:04:04Z</time>
      </trkpt>
      <trkpt lat="44.82393" lon="-0.37139">
        <ele>57</ele>
        <time>2016-05-28T08:04:07Z</time>
      </trkpt>
      <trkpt lat="44.8239" lon="-0.37137">
        <ele>57</ele>
        <time>2016-05-28T08:04:09Z</time>
      </trkpt>
      <trkpt lat="44.82373" lon="-0.37129">
        <ele>57</ele>
        <time>2016-05-28T08:04:24Z</time>
      </trkpt>
      <trkpt lat="44.8236" lon="-0.37125">
        <ele>58</ele>
        <time>2016-05-28T08:04:38Z</time>
      </trkpt>
      <trkpt lat="44.82338" lon="-0.37123">
        <ele>58</ele>
        <time>2016-05-28T08:04:57Z</time>
      </trkpt>
      <trkpt lat="44.82321" lon="-0.37127">
        <ele>62</ele>
        <time>2016-05-28T08:05:11Z</time>
      </trkpt>
      <trkpt lat="44.82306" lon="-0.37128">
        <ele>63</ele>
        <time>2016-05-28T08:05:26Z</time>
      </trkpt>
      <trkpt lat="44.82282" lon="-0.37131">
        <ele>64</ele>
        <time>2016-05-28T08:05:45Z</time>
      </trkpt>
      <trkpt lat="44.82279" lon="-0.37131">
        <ele>64</ele>
        <time>2016-05-28T08:05:48Z</time>
      </trkpt>
      <trkpt lat="44.82261" lon="-0.3713">
        <ele>65</ele>
        <time>2016-05-28T08:06:04Z</time>
      </trkpt>
      <trkpt lat="44.82246" lon="-0.37131">
        <ele>71</ele>
        <time>2016-05-28T08:06:18Z</time>
      </trkpt>
      <trkpt lat="44.8223" lon="-0.37129">
        <ele>72</ele>
        <time>2016-05-28T08:06:34Z</time>
      </trkpt>
      <trkpt lat="44.82214" lon="-0.37128">
        <ele>73</ele>
        <time>2016-05-28T08:06:50Z</time>
      </trkpt>
      <trkpt lat="44.82203" lon="-0.37128">
        <ele>73</ele>
        <time>2016-05-28T08:06:58Z</time>
      </trkpt>
      <trkpt lat="44.82192" lon="-0.37128">
        <ele>74</ele>
        <time>2016-05-28T08:07:06Z</time>
      </trkpt>
      <trkpt lat="44.82168" lon="-0.37127">
        <ele>75</ele>
        <time>2016-05-28T08:07:24Z</time>
      </trkpt>
      <trkpt lat="44.82167" lon="-0.37127">
        <ele>75</ele>
        <time>2016-05-28T08:07:25Z</time>
      </trkpt>
      <trkpt lat="44.82147" lon="-0.37124">
        <ele>81</ele>
        <time>2016-05-28T08:07:42Z</time>
      </trkpt>
      <trkpt lat="44.82133" lon="-0.37122">
        <ele>82</ele>
        <time>2016-05-28T08:07:56Z</time>
      </trkpt>
      <trkpt lat="44.82123" lon="-0.37116">
        <ele>83</ele>
        <time>2016-05-28T08:08:13Z</time>
      </trkpt>
      <trkpt lat="44.82117" lon="-0.3711">
        <ele>83</ele>
        <time>2016-05-28T08:08:48Z</time>
      </trkpt>
      <trkpt lat="44.82112" lon="-0.37108">
        <ele>84</ele>
        <time>2016-05-28T08:09:21Z</time>
      </trkpt>
      <trkpt lat="44.82117" lon="-0.37107">
        <ele>84</ele>
        <time>2016-05-28T08:09:49Z</time>
      </trkpt>
      <trkpt lat="44.82113" lon="-0.37109">
        <ele>84</ele>
        <time>2016-05-28T08:10:10Z</time>
      </trkpt>
      <trkpt lat="44.82106" lon="-0.37106">
        <ele>84</ele>
        <time>2016-05-28T08:10:21Z</time>
      </trkpt>
      <trkpt lat="44.82094" lon="-0.37099">
        <ele>86</ele>
        <time>2016-05-28T08:10:35Z</time>
      </trkpt>
      <trkpt lat="44.82085" lon="-0.37096">
        <ele>87</ele>
        <time>2016-05-28T08:10:44Z</time>
      </trkpt>
      <trkpt lat="44.82079" lon="-0.37095">
        <ele>89</ele>
        <time>2016-05-28T08:10:48Z</time>
      </trkpt>
      <trkpt lat="44.82068" lon="-0.3707">
        <ele>91</ele>
        <time>2016-05-28T08:11:04Z</time>
      </trkpt>
      <trkpt lat="44.82065" lon="-0.37069">
        <ele>91</ele>
        <time>2016-05-28T08:11:06Z</time>
      </trkpt>
      <trkpt lat="44.82048" lon="-0.37068">
        <ele>91</ele>
        <time>2016-05-28T08:11:22Z</time>
      </trkpt>
      <trkpt lat="44.82025" lon="-0.37066">
        <ele>91</ele>
        <time>2016-05-28T08:11:41Z</time>
      </trkpt>
      <trkpt lat="44.82018" lon="-0.37067">
        <ele>91</ele>
        <time>2016-05-28T08:11:54Z</time>
      </trkpt>
      <trkpt lat="44.82008" lon="-0.37073">
        <ele>91</ele>
        <time>2016-05-28T08:12:07Z</time>
      </trkpt>
      <trkpt lat="44.81993" lon="-0.37084">
        <ele>91</ele>
        <time>2016-05-28T08:12:22Z</time>
      </trkpt>
      <trkpt lat="44.81981" lon="-0.37088">
        <ele>91</ele>
        <time>2016-05-28T08:12:30Z</time>
      </trkpt>
      <trkpt lat="44.81961" lon="-0.37095">
        <ele>92</ele>
        <time>2016-05-28T08:12:46Z</time>
      </trkpt>
      <trkpt lat="44.81942" lon="-0.371">
        <ele>92</ele>
        <time>2016-05-28T08:13:01Z</time>
      </trkpt>
      <trkpt lat="44.81923" lon="-0.37105">
        <ele>92</ele>
        <time>2016-05-28T08:13:17Z</time>
      </trkpt>
      <trkpt lat="44.81901" lon="-0.3711">
        <ele>94</ele>
        <time>2016-05-28T08:13:33Z</time>
      </trkpt>
      <trkpt lat="44.81877" lon="-0.37116">
        <ele>94</ele>
        <time>2016-05-28T08:13:50Z</time>
      </trkpt>
      <trkpt lat="44.81852" lon="-0.37124">
        <ele>94</ele>
        <time>2016-05-28T08:14:09Z</time>
      </trkpt>
      <trkpt lat="44.81835" lon="-0.37131">
        <ele>94</ele>
        <time>2016-05-28T08:14:25Z</time>
      </trkpt>
      <trkpt lat="44.81825" lon="-0.37135">
        <ele>94</ele>
        <time>2016-05-28T08:14:41Z</time>
      </trkpt>
      <trkpt lat="44.81822" lon="-0.37133">
        <ele>94</ele>
        <time>2016-05-28T08:14:56Z</time>
      </trkpt>
      <trkpt lat="44.81824" lon="-0.37133">
        <ele>94</ele>
        <time>2016-05-28T08:15:24Z</time>
      </trkpt>
      <trkpt lat="44.81824" lon="-0.37133">
        <ele>94</ele>
        <time>2016-05-28T08:15:46Z</time>
      </trkpt>
      <trkpt lat="44.81823" lon="-0.37132">
        <ele>94</ele>
        <time>2016-05-28T08:15:50Z</time>
      </trkpt>
      <trkpt lat="44.81805" lon="-0.37114">
        <ele>94</ele>
        <time>2016-05-28T08:16:10Z</time>
      </trkpt>
      <trkpt lat="44.81785" lon="-0.37091">
        <ele>93</ele>
        <time>2016-05-28T08:16:31Z</time>
      </trkpt>
      <trkpt lat="44.81763" lon="-0.37067">
        <ele>93</ele>
        <time>2016-05-28T08:16:52Z</time>
      </trkpt>
      <trkpt lat="44.81743" lon="-0.3705">
        <ele>91</ele>
        <time>2016-05-28T08:17:09Z</time>
      </trkpt>
      <trkpt lat="44.81719" lon="-0.37033">
        <ele>91</ele>
        <time>2016-05-28T08:17:29Z</time>
      </trkpt>
      <trkpt lat="44.81698" lon="-0.37017">
        <ele>91</ele>
        <time>2016-05-28T08:17:48Z</time>
      </trkpt>
      <trkpt lat="44.81673" lon="-0.36997">
        <ele>90</ele>
        <time>2016-05-28T08:18:09Z</time>
      </trkpt>
      <trkpt lat="44.81654" lon="-0.36984">
        <ele>88</ele>
        <time>2016-05-28T08:18:26Z</time>
      </trkpt>
      <trkpt lat="44.81636" lon="-0.36969">
        <ele>86</ele>
        <time>2016-05-28T08:18:43Z</time>
      </trkpt>
      <trkpt lat="44.81619" lon="-0.36956">
        <ele>85</ele>
        <time>2016-05-28T08:18:59Z</time>
      </trkpt>
      <trkpt lat="44.81601" lon="-0.36938">
        <ele>84</ele>
        <time>2016-05-28T08:19:16Z</time>
      </trkpt>
      <trkpt lat="44.81583" lon="-0.36914">
        <ele>80</ele>
        <time>2016-05-28T08:19:36Z</time>
      </trkpt>
      <trkpt lat="44.8157" lon="-0.36886">
        <ele>77</ele>
        <time>2016-05-28T08:19:55Z</time>
      </trkpt>
      <trkpt lat="44.8156" lon="-0.36852">
        <ele>76</ele>
        <time>2016-05-28T08:20:15Z</time>
      </trkpt>
      <trkpt lat="44.81553" lon="-0.36824">
        <ele>74</ele>
        <time>2016-05-28T08:20:32Z</time>
      </trkpt>
      <trkpt lat="44.81545" lon="-0.36797">
        <ele>73</ele>
        <time>2016-05-28T08:20:49Z</time>
      </trkpt>
      <trkpt lat="44.81536" lon="-0.36765">
        <ele>72</ele>
        <time>2016-05-28T08:21:08Z</time>
      </trkpt>
      <trkpt lat="44.81525" lon="-0.36738">
        <ele>68</ele>
        <time>2016-05-28T08:21:26Z</time>
      </trkpt>
      <trkpt lat="44.81513" lon="-0.36718">
        <ele>67</ele>
        <time>2016-05-28T08:21:41Z</time>
      </trkpt>
      <trkpt lat="44.81501" lon="-0.36695">
        <ele>66</ele>
        <time>2016-05-28T08:21:57Z</time>
      </trkpt>
      <trkpt lat="44.81493" lon="-0.36676">
        <ele>63</ele>
        <time>2016-05-28T08:22:10Z</time>
      </trkpt>
      <trkpt lat="44.81491" lon="-0.36668">
        <ele>63</ele>
        <time>2016-05-28T08:22:15Z</time>
      </trkpt>
      <trkpt lat="44.81484" lon="-0.36641">
        <ele>60</ele>
        <time>2016-05-28T08:22:32Z</time>
      </trkpt>
      <trkpt lat="44.81477" lon="-0.3661">
        <ele>58</ele>
        <time>2016-05-28T08:22:50Z</time>
      </trkpt>
      <trkpt lat="44.81468" lon="-0.36583">
        <ele>55</ele>
        <time>2016-05-28T08:23:06Z</time>
      </trkpt>
      <trkpt lat="44.81457" lon="-0.36549">
        <ele>54</ele>
        <time>2016-05-28T08:23:25Z</time>
      </trkpt>
      <trkpt lat="44.81447" lon="-0.36525">
        <ele>53</ele>
        <time>2016-05-28T08:23:42Z</time>
      </trkpt>
      <trkpt lat="44.81443" lon="-0.36524">
        <ele>53</ele>
        <time>2016-05-28T08:24:02Z</time>
      </trkpt>
      <trkpt lat="44.81447" lon="-0.3653">
        <ele>53</ele>
        <time>2016-05-28T08:24:15Z</time>
      </trkpt>
      <trkpt lat="44.81446" lon="-0.36526">
        <ele>53</ele>
        <time>2016-05-28T08:24:22Z</time>
      </trkpt>
      <trkpt lat="44.81438" lon="-0.36532">
        <ele>53</ele>
        <time>2016-05-28T08:24:35Z</time>
      </trkpt>
      <trkpt lat="44.81434" lon="-0.36537">
        <ele>53</ele>
        <time>2016-05-28T08:24:39Z</time>
      </trkpt>
      <trkpt lat="44.81421" lon="-0.36556">
        <ele>53</ele>
        <time>2016-05-28T08:24:54Z</time>
      </trkpt>
      <trkpt lat="44.81407" lon="-0.36581">
        <ele>51</ele>
        <time>2016-05-28T08:25:12Z</time>
      </trkpt>
      <trkpt lat="44.8139" lon="-0.366">
        <ele>53</ele>
        <time>2016-05-28T08:25:28Z</time>
      </trkpt>
      <trkpt lat="44.8139" lon="-0.36601">
        <ele>53</ele>
        <time>2016-05-28T08:25:29Z</time>
      </trkpt>
      <trkpt lat="44.81368" lon="-0.36613">
        <ele>53</ele>
        <time>2016-05-28T08:25:47Z</time>
      </trkpt>
      <trkpt lat="44.81345" lon="-0.36621">
        <ele>53</ele>
        <time>2016-05-28T08:26:05Z</time>
      </trkpt>
      <trkpt lat="44.81326" lon="-0.36625">
        <ele>53</ele>
        <time>2016-05-28T08:26:22Z</time>
      </trkpt>
      <trkpt lat="44.81306" lon="-0.36634">
        <ele>53</ele>
        <time>2016-05-28T08:26:38Z</time>
      </trkpt>
      <trkpt lat="44.81282" lon="-0.36639">
        <ele>53</ele>
        <time>2016-05-28T08:26:55Z</time>
      </trkpt>
      <trkpt lat="44.81259" lon="-0.3665">
        <ele>53</ele>
        <time>2016-05-28T08:27:12Z</time>
      </trkpt>
      <trkpt lat="44.81239" lon="-0.36672">
        <ele>53</ele>
        <time>2016-05-28T08:27:30Z</time>
      </trkpt>
      <trkpt lat="44.81224" lon="-0.36702">
        <ele>53</ele>
        <time>2016-05-28T08:27:49Z</time>
      </trkpt>
      <trkpt lat="44.81209" lon="-0.36736">
        <ele>53</ele>
        <time>2016-05-28T08:28:10Z</time>
      </trkpt>
      <trkpt lat="44.81208" lon="-0.36738">
        <ele>53</ele>
        <time>2016-05-28T08:28:11Z</time>
      </trkpt>
      <trkpt lat="44.81197" lon="-0.36766">
        <ele>54</ele>
        <time>2016-05-28T08:28:28Z</time>
      </trkpt>
      <trkpt lat="44.81186" lon="-0.36794">
        <ele>54</ele>
        <time>2016-05-28T08:28:45Z</time>
      </trkpt>
      <trkpt lat="44.81175" lon="-0.36817">
        <ele>54</ele>
        <time>2016-05-28T08:29:00Z</time>
      </trkpt>
      <trkpt lat="44.81163" lon="-0.36845">
        <ele>54</ele>
        <time>2016-05-28T08:29:17Z</time>
      </trkpt>
      <trkpt lat="44.81144" lon="-0.36872">
        <ele>55</ele>
        <time>2016-05-28T08:29:37Z</time>
      </trkpt>
      <trkpt lat="44.81129" lon="-0.3689">
        <ele>55</ele>
        <time>2016-05-28T08:29:52Z</time>
      </trkpt>
      <trkpt lat="44.81125" lon="-0.36895">
        <ele>55</ele>
        <time>2016-05-28T08:29:57Z</time>
      </trkpt>
      <trkpt lat="44.81106" lon="-0.36909">
        <ele>54</ele>
        <time>2016-05-28T08:30:14Z</time>
      </trkpt>
      <trkpt lat="44.81084" lon="-0.36921">
        <ele>53</ele>
        <time>2016-05-28T08:30:32Z</time>
      </trkpt>
      <trkpt lat="44.81063" lon="-0.36932">
        <ele>54</ele>
        <time>2016-05-28T08:30:49Z</time>
      </trkpt>
      <trkpt lat="44.81048" lon="-0.36938">
        <ele>55</ele>
        <time>2016-05-28T08:31:03Z</time>
      </trkpt>
      <trkpt lat="44.8104" lon="-0.36942">
        <ele>55</ele>
        <time>2016-05-28T08:31:14Z</time>
      </trkpt>
      <trkpt lat="44.81022" lon="-0.36948">
        <ele>55</ele>
        <time>2016-05-28T08:31:27Z</time>
      </trkpt>
      <trkpt lat="44.81" lon="-0.36953">
        <ele>56</ele>
        <time>2016-05-28T08:31:43Z</time>
      </trkpt>
      <trkpt lat="44.80981" lon="-0.36958">
        <ele>56</ele>
        <time>2016-05-28T08:31:57Z</time>
      </trkpt>
      <trkpt lat="44.8097" lon="-0.36965">
        <ele>56</ele>
        <time>2016-05-28T08:32:10Z</time>
      </trkpt>
      <trkpt lat="44.80944" lon="-0.36971">
        <ele>56</ele>
        <time>2016-05-28T08:32:28Z</time>
      </trkpt>
      <trkpt lat="44.80923" lon="-0.36975">
        <ele>56</ele>
        <time>2016-05-28T08:32:47Z</time>
      </trkpt>
      <trkpt lat="44.80912" lon="-0.36973">
        <ele>54</ele>
        <time>2016-05-28T08:32:57Z</time>
      </trkpt>
      <trkpt lat="44.80884" lon="-0.36977">
        <ele>54</ele>
        <time>2016-05-28T08:33:13Z</time>
      </trkpt>
      <trkpt lat="44.80853" lon="-0.36983">
        <ele>53</ele>
        <time>2016-05-28T08:33:31Z</time>
      </trkpt>
      <trkpt lat="44.80829" lon="-0.36989">
        <ele>53</ele>
        <time>2016-05-28T08:33:49Z</time>
      </trkpt>
      <trkpt lat="44.80811" lon="-0.36995">
        <ele>53</ele>
        <time>2016-05-28T08:34:01Z</time>
      </trkpt>
      <trkpt lat="44.80794" lon="-0.36999">
        <ele>54</ele>
        <time>2016-05-28T08:34:15Z</time>
      </trkpt>
      <trkpt lat="44.80772" lon="-0.37006">
        <ele>56</ele>
        <time>2016-05-28T08:34:32Z</time>
      </trkpt>
      <trkpt lat="44.80751" lon="-0.37015">
        <ele>56</ele>
        <time>2016-05-28T08:34:48Z</time>
      </trkpt>
      <trkpt lat="44.8073" lon="-0.37029">
        <ele>57</ele>
        <time>2016-05-28T08:35:05Z</time>
      </trkpt>
      <trkpt lat="44.8071" lon="-0.37039">
        <ele>58</ele>
        <time>2016-05-28T08:35:21Z</time>
      </trkpt>
      <trkpt lat="44.8069" lon="-0.37054">
        <ele>58</ele>
        <time>2016-05-28T08:35:39Z</time>
      </trkpt>
      <trkpt lat="44.8067" lon="-0.37076">
        <ele>58</ele>
        <time>2016-05-28T08:35:57Z</time>
      </trkpt>
      <trkpt lat="44.8065" lon="-0.371">
        <ele>60</ele>
        <time>2016-05-28T08:36:14Z</time>
      </trkpt>
      <trkpt lat="44.80636" lon="-0.37127">
        <ele>60</ele>
        <time>2016-05-28T08:36:32Z</time>
      </trkpt>
      <trkpt lat="44.80619" lon="-0.37154">
        <ele>61</ele>
        <time>2016-05-28T08:36:51Z</time>
      </trkpt>
      <trkpt lat="44.80604" lon="-0.3718">
        <ele>62</ele>
        <time>2016-05-28T08:37:08Z</time>
      </trkpt>
      <trkpt lat="44.80591" lon="-0.37202">
        <ele>62</ele>
        <time>2016-05-28T08:37:24Z</time>
      </trkpt>
      <trkpt lat="44.80581" lon="-0.37225">
        <ele>65</ele>
        <time>2016-05-28T08:37:40Z</time>
      </trkpt>
      <trkpt lat="44.80571" lon="-0.37224">
        <ele>65</ele>
        <time>2016-05-28T08:37:54Z</time>
      </trkpt>
      <trkpt lat="44.80557" lon="-0.37216">
        <ele>65</ele>
        <time>2016-05-28T08:38:12Z</time>
      </trkpt>
      <trkpt lat="44.80538" lon="-0.37205">
        <ele>65</ele>
        <time>2016-05-28T08:38:32Z</time>
      </trkpt>
      <trkpt lat="44.80524" lon="-0.37203">
        <ele>65</ele>
        <time>2016-05-28T08:38:48Z</time>
      </trkpt>
      <trkpt lat="44.80507" lon="-0.37202">
        <ele>65</ele>
        <time>2016-05-28T08:39:07Z</time>
      </trkpt>
      <trkpt lat="44.80503" lon="-0.372">
        <ele>65</ele>
        <time>2016-05-28T08:39:10Z</time>
      </trkpt>
      <trkpt lat="44.80486" lon="-0.3719">
        <ele>65</ele>
        <time>2016-05-28T08:39:27Z</time>
      </trkpt>
      <trkpt lat="44.8047" lon="-0.37186">
        <ele>65</ele>
        <time>2016-05-28T08:39:40Z</time>
      </trkpt>
      <trkpt lat="44.80466" lon="-0.37167">
        <ele>64</ele>
        <time>2016-05-28T08:39:56Z</time>
      </trkpt>
      <trkpt lat="44.80466" lon="-0.37149">
        <ele>63</ele>
        <time>2016-05-28T08:40:12Z</time>
      </trkpt>
      <trkpt lat="44.80467" lon="-0.37141">
        <ele>63</ele>
        <time>2016-05-28T08:40:41Z</time>
      </trkpt>
      <trkpt lat="44.80468" lon="-0.37143">
        <ele>63</ele>
        <time>2016-05-28T08:41:04Z</time>
      </trkpt>
      <trkpt lat="44.80466" lon="-0.37145">
        <ele>63</ele>
        <time>2016-05-28T08:41:23Z</time>
      </trkpt>
      <trkpt lat="44.80469" lon="-0.37147">
        <ele>63</ele>
        <time>2016-05-28T08:41:44Z</time>
      </trkpt>
      <trkpt lat="44.80465" lon="-0.37144">
        <ele>63</ele>
        <time>2016-05-28T08:42:27Z</time>
      </trkpt>
      <trkpt lat="44.80464" lon="-0.37145">
        <ele>63</ele>
        <time>2016-05-28T08:42:58Z</time>
      </trkpt>
      <trkpt lat="44.80465" lon="-0.37144">
        <ele>63</ele>
        <time>2016-05-28T08:43:07Z</time>
      </trkpt>
      <trkpt lat="44.80471" lon="-0.37145">
        <ele>63</ele>
        <time>2016-05-28T08:43:35Z</time>
      </trkpt>
      <trkpt lat="44.80471" lon="-0.37147">
        <ele>63</ele>
        <time>2016-05-28T08:44:13Z</time>
      </trkpt>
      <trkpt lat="44.80469" lon="-0.37149">
        <ele>63</ele>
        <time>2016-05-28T08:44:48Z</time>
      </trkpt>
      <trkpt lat="44.80469" lon="-0.37145">
        <ele>63</ele>
        <time>2016-05-28T08:45:24Z</time>
      </trkpt>
      <trkpt lat="44.80468" lon="-0.37144">
        <ele>63</ele>
        <time>2016-05-28T08:45:57Z</time>
      </trkpt>
      <trkpt lat="44.80468" lon="-0.37141">
        <ele>63</ele>
        <time>2016-05-28T08:46:25Z</time>
      </trkpt>
      <trkpt lat="44.80466" lon="-0.3714">
        <ele>63</ele>
        <time>2016-05-28T08:46:44Z</time>
      </trkpt>
      <trkpt lat="44.80468" lon="-0.37138">
        <ele>63</ele>
        <time>2016-05-28T08:47:00Z</time>
      </trkpt>
      <trkpt lat="44.80466" lon="-0.37142">
        <ele>63</ele>
        <time>2016-05-28T08:47:20Z</time>
      </trkpt>
      <trkpt lat="44.80468" lon="-0.37142">
        <ele>63</ele>
        <time>2016-05-28T08:47:43Z</time>
      </trkpt>
      <trkpt lat="44.80468" lon="-0.37141">
        <ele>63</ele>
        <time>2016-05-28T08:48:05Z</time>
      </trkpt>
      <trkpt lat="44.80469" lon="-0.37143">
        <ele>63</ele>
        <time>2016-05-28T08:48:32Z</time>
      </trkpt>
      <trkpt lat="44.8047" lon="-0.37145">
        <ele>63</ele>
        <time>2016-05-28T08:48:56Z</time>
      </trkpt>
      <trkpt lat="44.8047" lon="-0.37146">
        <ele>63</ele>
        <time>2016-05-28T08:49:21Z</time>
      </trkpt>
      <trkpt lat="44.80468" lon="-0.37144">
        <ele>63</ele>
        <time>2016-05-28T08:49:46Z</time>
      </trkpt>
      <trkpt lat="44.80466" lon="-0.37149">
        <ele>63</ele>
        <time>2016-05-28T08:50:05Z</time>
      </trkpt>
      <trkpt lat="44.80463" lon="-0.37148">
        <ele>63</ele>
        <time>2016-05-28T08:50:19Z</time>
      </trkpt>
      <trkpt lat="44.80462" lon="-0.37145">
        <ele>63</ele>
        <time>2016-05-28T08:50:40Z</time>
      </trkpt>
      <trkpt lat="44.8046" lon="-0.37137">
        <ele>63</ele>
        <time>2016-05-28T08:50:55Z</time>
      </trkpt>
      <trkpt lat="44.80461" lon="-0.37135">
        <ele>63</ele>
        <time>2016-05-28T08:51:11Z</time>
      </trkpt>
      <trkpt lat="44.8046" lon="-0.37131">
        <ele>63</ele>
        <time>2016-05-28T08:51:29Z</time>
      </trkpt>
      <trkpt lat="44.80461" lon="-0.37127">
        <ele>63</ele>
        <time>2016-05-28T08:51:47Z</time>
      </trkpt>
      <trkpt lat="44.8046" lon="-0.37127">
        <ele>63</ele>
        <time>2016-05-28T08:52:14Z</time>
      </trkpt>
      <trkpt lat="44.80461" lon="-0.37118">
        <ele>62</ele>
        <time>2016-05-28T08:52:27Z</time>
      </trkpt>
      <trkpt lat="44.80459" lon="-0.37105">
        <ele>62</ele>
        <time>2016-05-28T08:52:40Z</time>
      </trkpt>
      <trkpt lat="44.80456" lon="-0.37086">
        <ele>62</ele>
        <time>2016-05-28T08:52:54Z</time>
      </trkpt>
      <trkpt lat="44.80451" lon="-0.37072">
        <ele>61</ele>
        <time>2016-05-28T08:53:08Z</time>
      </trkpt>
      <trkpt lat="44.80439" lon="-0.37052">
        <ele>61</ele>
        <time>2016-05-28T08:53:22Z</time>
      </trkpt>
      <trkpt lat="44.80431" lon="-0.37042">
        <ele>60</ele>
        <time>2016-05-28T08:53:37Z</time>
      </trkpt>
      <trkpt lat="44.80422" lon="-0.37038">
        <ele>60</ele>
        <time>2016-05-28T08:53:53Z</time>
      </trkpt>
      <trkpt lat="44.80408" lon="-0.37038">
        <ele>62</ele>
        <time>2016-05-28T08:54:06Z</time>
      </trkpt>
      <trkpt lat="44.80397" lon="-0.37036">
        <ele>62</ele>
        <time>2016-05-28T08:54:23Z</time>
      </trkpt>
      <trkpt lat="44.8039" lon="-0.37037">
        <ele>62</ele>
        <time>2016-05-28T08:54:33Z</time>
      </trkpt>
      <trkpt lat="44.80378" lon="-0.37045">
        <ele>63</ele>
        <time>2016-05-28T08:54:50Z</time>
      </trkpt>
      <trkpt lat="44.80369" lon="-0.37046">
        <ele>63</ele>
        <time>2016-05-28T08:55:04Z</time>
      </trkpt>
      <trkpt lat="44.80359" lon="-0.37046">
        <ele>63</ele>
        <time>2016-05-28T08:55:22Z</time>
      </trkpt>
      <trkpt lat="44.80345" lon="-0.37042">
        <ele>64</ele>
        <time>2016-05-28T08:55:34Z</time>
      </trkpt>
      <trkpt lat="44.80324" lon="-0.37036">
        <ele>68</ele>
        <time>2016-05-28T08:55:50Z</time>
      </trkpt>
      <trkpt lat="44.80318" lon="-0.37035">
        <ele>68</ele>
        <time>2016-05-28T08:56:03Z</time>
      </trkpt>
      <trkpt lat="44.80313" lon="-0.37029">
        <ele>68</ele>
        <time>2016-05-28T08:56:18Z</time>
      </trkpt>
      <trkpt lat="44.80306" lon="-0.37018">
        <ele>69</ele>
        <time>2016-05-28T08:56:35Z</time>
      </trkpt>
      <trkpt lat="44.80288" lon="-0.37009">
        <ele>69</ele>
        <time>2016-05-28T08:56:57Z</time>
      </trkpt>
      <trkpt lat="44.80277" lon="-0.37008">
        <ele>70</ele>
        <time>2016-05-28T08:57:09Z</time>
      </trkpt>
      <trkpt lat="44.80269" lon="-0.3702">
        <ele>70</ele>
        <time>2016-05-28T08:57:22Z</time>
      </trkpt>
      <trkpt lat="44.80268" lon="-0.37024">
        <ele>70</ele>
        <time>2016-05-28T08:57:36Z</time>
      </trkpt>
      <trkpt lat="44.80255" lon="-0.37029">
        <ele>70</ele>
        <time>2016-05-28T08:57:49Z</time>
      </trkpt>
      <trkpt lat="44.80247" lon="-0.37032">
        <ele>74</ele>
        <time>2016-05-28T08:58:02Z</time>
      </trkpt>
      <trkpt lat="44.80239" lon="-0.37025">
        <ele>74</ele>
        <time>2016-05-28T08:58:16Z</time>
      </trkpt>
      <trkpt lat="44.80237" lon="-0.37018">
        <ele>74</ele>
        <time>2016-05-28T08:58:27Z</time>
      </trkpt>
      <trkpt lat="44.80226" lon="-0.37012">
        <ele>74</ele>
        <time>2016-05-28T08:58:37Z</time>
      </trkpt>
      <trkpt lat="44.80202" lon="-0.37001">
        <ele>75</ele>
        <time>2016-05-28T08:58:50Z</time>
      </trkpt>
      <trkpt lat="44.80188" lon="-0.37002">
        <ele>76</ele>
        <time>2016-05-28T08:59:03Z</time>
      </trkpt>
      <trkpt lat="44.80178" lon="-0.37">
        <ele>76</ele>
        <time>2016-05-28T08:59:14Z</time>
      </trkpt>
      <trkpt lat="44.8016" lon="-0.36999">
        <ele>78</ele>
        <time>2016-05-28T08:59:28Z</time>
      </trkpt>
      <trkpt lat="44.80148" lon="-0.37">
        <ele>78</ele>
        <time>2016-05-28T08:59:35Z</time>
      </trkpt>
      <trkpt lat="44.80129" lon="-0.37004">
        <ele>78</ele>
        <time>2016-05-28T08:59:51Z</time>
      </trkpt>
      <trkpt lat="44.80115" lon="-0.36999">
        <ele>78</ele>
        <time>2016-05-28T09:00:03Z</time>
      </trkpt>
      <trkpt lat="44.80098" lon="-0.36998">
        <ele>78</ele>
        <time>2016-05-28T09:00:17Z</time>
      </trkpt>
      <trkpt lat="44.80083" lon="-0.36997">
        <ele>79</ele>
        <time>2016-05-28T09:00:31Z</time>
      </trkpt>
      <trkpt lat="44.80077" lon="-0.36996">
        <ele>80</ele>
        <time>2016-05-28T09:00:42Z</time>
      </trkpt>
      <trkpt lat="44.80056" lon="-0.36992">
        <ele>81</ele>
        <time>2016-05-28T09:00:56Z</time>
      </trkpt>
      <trkpt lat="44.80036" lon="-0.36988">
        <ele>82</ele>
        <time>2016-05-28T09:01:11Z</time>
      </trkpt>
      <trkpt lat="44.8003" lon="-0.36986">
        <ele>82</ele>
        <time>2016-05-28T09:01:24Z</time>
      </trkpt>
      <trkpt lat="44.80008" lon="-0.36977">
        <ele>83</ele>
        <time>2016-05-28T09:01:38Z</time>
      </trkpt>
      <trkpt lat="44.79986" lon="-0.36976">
        <ele>86</ele>
        <time>2016-05-28T09:01:53Z</time>
      </trkpt>
      <trkpt lat="44.79965" lon="-0.36975">
        <ele>86</ele>
        <time>2016-05-28T09:02:01Z</time>
      </trkpt>
      <trkpt lat="44.79957" lon="-0.36975">
        <ele>86</ele>
        <time>2016-05-28T09:02:05Z</time>
      </trkpt>
      <trkpt lat="44.79953" lon="-0.36976">
        <ele>87</ele>
        <time>2016-05-28T09:02:08Z</time>
      </trkpt>
      <trkpt lat="44.79937" lon="-0.36989">
        <ele>88</ele>
        <time>2016-05-28T09:02:22Z</time>
      </trkpt>
      <trkpt lat="44.79936" lon="-0.36995">
        <ele>88</ele>
        <time>2016-05-28T09:02:48Z</time>
      </trkpt>
      <trkpt lat="44.7993" lon="-0.36996">
        <ele>88</ele>
        <time>2016-05-28T09:03:01Z</time>
      </trkpt>
      <trkpt lat="44.79919" lon="-0.37001">
        <ele>90</ele>
        <time>2016-05-28T09:03:16Z</time>
      </trkpt>
      <trkpt lat="44.79908" lon="-0.37008">
        <ele>89</ele>
        <time>2016-05-28T09:03:28Z</time>
      </trkpt>
      <trkpt lat="44.79891" lon="-0.37023">
        <ele>88</ele>
        <time>2016-05-28T09:03:44Z</time>
      </trkpt>
      <trkpt lat="44.79883" lon="-0.37044">
        <ele>88</ele>
        <time>2016-05-28T09:04:00Z</time>
      </trkpt>
      <trkpt lat="44.79873" lon="-0.37057">
        <ele>87</ele>
        <time>2016-05-28T09:04:08Z</time>
      </trkpt>
      <trkpt lat="44.79862" lon="-0.37068">
        <ele>87</ele>
        <time>2016-05-28T09:04:22Z</time>
      </trkpt>
      <trkpt lat="44.7986" lon="-0.37072">
        <ele>87</ele>
        <time>2016-05-28T09:04:35Z</time>
      </trkpt>
      <trkpt lat="44.79859" lon="-0.3707">
        <ele>87</ele>
        <time>2016-05-28T09:04:49Z</time>
      </trkpt>
      <trkpt lat="44.79859" lon="-0.37069">
        <ele>87</ele>
        <time>2016-05-28T09:05:06Z</time>
      </trkpt>
      <trkpt lat="44.7986" lon="-0.37069">
        <ele>87</ele>
        <time>2016-05-28T09:05:18Z</time>
      </trkpt>
      <trkpt lat="44.79858" lon="-0.37068">
        <ele>87</ele>
        <time>2016-05-28T09:05:33Z</time>
      </trkpt>
      <trkpt lat="44.79858" lon="-0.37071">
        <ele>87</ele>
        <time>2016-05-28T09:05:35Z</time>
      </trkpt>
      <trkpt lat="44.79848" lon="-0.37093">
        <ele>85</ele>
        <time>2016-05-28T09:05:52Z</time>
      </trkpt>
      <trkpt lat="44.79835" lon="-0.37117">
        <ele>85</ele>
        <time>2016-05-28T09:06:09Z</time>
      </trkpt>
      <trkpt lat="44.79819" lon="-0.3714">
        <ele>88</ele>
        <time>2016-05-28T09:06:27Z</time>
      </trkpt>
      <trkpt lat="44.79802" lon="-0.37155">
        <ele>88</ele>
        <time>2016-05-28T09:06:43Z</time>
      </trkpt>
      <trkpt lat="44.79777" lon="-0.37166">
        <ele>91</ele>
        <time>2016-05-28T09:07:04Z</time>
      </trkpt>
      <trkpt lat="44.7977" lon="-0.37165">
        <ele>91</ele>
        <time>2016-05-28T09:07:17Z</time>
      </trkpt>
      <trkpt lat="44.79768" lon="-0.37149">
        <ele>91</ele>
        <time>2016-05-28T09:07:32Z</time>
      </trkpt>
      <trkpt lat="44.79769" lon="-0.37145">
        <ele>91</ele>
        <time>2016-05-28T09:07:36Z</time>
      </trkpt>
      <trkpt lat="44.79764" lon="-0.37119">
        <ele>91</ele>
        <time>2016-05-28T09:07:52Z</time>
      </trkpt>
      <trkpt lat="44.79759" lon="-0.37109">
        <ele>91</ele>
        <time>2016-05-28T09:07:58Z</time>
      </trkpt>
      <trkpt lat="44.79754" lon="-0.37096">
        <ele>92</ele>
        <time>2016-05-28T09:08:05Z</time>
      </trkpt>
      <trkpt lat="44.7975" lon="-0.3709">
        <ele>94</ele>
        <time>2016-05-28T09:08:09Z</time>
      </trkpt>
      <trkpt lat="44.79747" lon="-0.37087">
        <ele>94</ele>
        <time>2016-05-28T09:08:12Z</time>
      </trkpt>
      <trkpt lat="44.79744" lon="-0.3708">
        <ele>94</ele>
        <time>2016-05-28T09:08:16Z</time>
      </trkpt>
      <trkpt lat="44.79734" lon="-0.37068">
        <ele>95</ele>
        <time>2016-05-28T09:08:25Z</time>
      </trkpt>
      <trkpt lat="44.7973" lon="-0.37062">
        <ele>95</ele>
        <time>2016-05-28T09:08:29Z</time>
      </trkpt>
      <trkpt lat="44.7972" lon="-0.37032">
        <ele>96</ele>
        <time>2016-05-28T09:08:47Z</time>
      </trkpt>
      <trkpt lat="44.79713" lon="-0.37004">
        <ele>96</ele>
        <time>2016-05-28T09:09:04Z</time>
      </trkpt>
      <trkpt lat="44.79711" lon="-0.37">
        <ele>96</ele>
        <time>2016-05-28T09:09:08Z</time>
      </trkpt>
      <trkpt lat="44.79703" lon="-0.36992">
        <ele>96</ele>
        <time>2016-05-28T09:09:20Z</time>
      </trkpt>
      <trkpt lat="44.797" lon="-0.36978">
        <ele>96</ele>
        <time>2016-05-28T09:09:34Z</time>
      </trkpt>
      <trkpt lat="44.79687" lon="-0.36964">
        <ele>96</ele>
        <time>2016-05-28T09:09:47Z</time>
      </trkpt>
      <trkpt lat="44.79675" lon="-0.36961">
        <ele>96</ele>
        <time>2016-05-28T09:09:54Z</time>
      </trkpt>
      <trkpt lat="44.79664" lon="-0.3696">
        <ele>97</ele>
        <time>2016-05-28T09:10:09Z</time>
      </trkpt>
      <trkpt lat="44.79652" lon="-0.36963">
        <ele>97</ele>
        <time>2016-05-28T09:10:23Z</time>
      </trkpt>
      <trkpt lat="44.79636" lon="-0.36964">
        <ele>97</ele>
        <time>2016-05-28T09:10:37Z</time>
      </trkpt>
      <trkpt lat="44.79627" lon="-0.36964">
        <ele>97</ele>
        <time>2016-05-28T09:10:52Z</time>
      </trkpt>
      <trkpt lat="44.79613" lon="-0.3696">
        <ele>97</ele>
        <time>2016-05-28T09:11:07Z</time>
      </trkpt>
      <trkpt lat="44.79602" lon="-0.36956">
        <ele>97</ele>
        <time>2016-05-28T09:11:22Z</time>
      </trkpt>
      <trkpt lat="44.79594" lon="-0.36946">
        <ele>97</ele>
        <time>2016-05-28T09:11:36Z</time>
      </trkpt>
      <trkpt lat="44.79588" lon="-0.36931">
        <ele>96</ele>
        <time>2016-05-28T09:11:49Z</time>
      </trkpt>
      <trkpt lat="44.7958" lon="-0.36911">
        <ele>94</ele>
        <time>2016-05-28T09:12:02Z</time>
      </trkpt>
      <trkpt lat="44.79575" lon="-0.36897">
        <ele>92</ele>
        <time>2016-05-28T09:12:14Z</time>
      </trkpt>
      <trkpt lat="44.79562" lon="-0.36887">
        <ele>90</ele>
        <time>2016-05-28T09:12:27Z</time>
      </trkpt>
      <trkpt lat="44.79551" lon="-0.3688">
        <ele>89</ele>
        <time>2016-05-28T09:12:43Z</time>
      </trkpt>
      <trkpt lat="44.79544" lon="-0.3687">
        <ele>89</ele>
        <time>2016-05-28T09:12:57Z</time>
      </trkpt>
      <trkpt lat="44.79535" lon="-0.36864">
        <ele>88</ele>
        <time>2016-05-28T09:13:11Z</time>
      </trkpt>
      <trkpt lat="44.79526" lon="-0.36862">
        <ele>88</ele>
        <time>2016-05-28T09:13:24Z</time>
      </trkpt>
      <trkpt lat="44.79516" lon="-0.36863">
        <ele>88</ele>
        <time>2016-05-28T09:13:39Z</time>
      </trkpt>
      <trkpt lat="44.79501" lon="-0.36864">
        <ele>88</ele>
        <time>2016-05-28T09:13:53Z</time>
      </trkpt>
      <trkpt lat="44.79483" lon="-0.36865">
        <ele>85</ele>
        <time>2016-05-28T09:14:06Z</time>
      </trkpt>
      <trkpt lat="44.79478" lon="-0.36865">
        <ele>85</ele>
        <time>2016-05-28T09:14:12Z</time>
      </trkpt>
      <trkpt lat="44.7947" lon="-0.3686">
        <ele>85</ele>
        <time>2016-05-28T09:14:24Z</time>
      </trkpt>
      <trkpt lat="44.79457" lon="-0.36864">
        <ele>85</ele>
        <time>2016-05-28T09:14:37Z</time>
      </trkpt>
      <trkpt lat="44.79449" lon="-0.36854">
        <ele>84</ele>
        <time>2016-05-28T09:14:51Z</time>
      </trkpt>
      <trkpt lat="44.79437" lon="-0.36848">
        <ele>83</ele>
        <time>2016-05-28T09:15:06Z</time>
      </trkpt>
      <trkpt lat="44.79426" lon="-0.36838">
        <ele>82</ele>
        <time>2016-05-28T09:15:20Z</time>
      </trkpt>
      <trkpt lat="44.79417" lon="-0.36829">
        <ele>80</ele>
        <time>2016-05-28T09:15:35Z</time>
      </trkpt>
      <trkpt lat="44.79414" lon="-0.36802">
        <ele>79</ele>
        <time>2016-05-28T09:15:54Z</time>
      </trkpt>
      <trkpt lat="44.79406" lon="-0.36773">
        <ele>79</ele>
        <time>2016-05-28T09:16:22Z</time>
      </trkpt>
      <trkpt lat="44.79403" lon="-0.3677">
        <ele>79</ele>
        <time>2016-05-28T09:16:41Z</time>
      </trkpt>
      <trkpt lat="44.79409" lon="-0.36771">
        <ele>79</ele>
        <time>2016-05-28T09:16:57Z</time>
      </trkpt>
      <trkpt lat="44.79408" lon="-0.3677">
        <ele>79</ele>
        <time>2016-05-28T09:17:14Z</time>
      </trkpt>
      <trkpt lat="44.79396" lon="-0.3678">
        <ele>78</ele>
        <time>2016-05-28T09:17:33Z</time>
      </trkpt>
      <trkpt lat="44.79387" lon="-0.36788">
        <ele>78</ele>
        <time>2016-05-28T09:18:00Z</time>
      </trkpt>
      <trkpt lat="44.79391" lon="-0.36782">
        <ele>78</ele>
        <time>2016-05-28T09:18:15Z</time>
      </trkpt>
      <trkpt lat="44.79383" lon="-0.36778">
        <ele>78</ele>
        <time>2016-05-28T09:18:32Z</time>
      </trkpt>
      <trkpt lat="44.7937" lon="-0.36775">
        <ele>78</ele>
        <time>2016-05-28T09:18:46Z</time>
      </trkpt>
      <trkpt lat="44.79356" lon="-0.36772">
        <ele>77</ele>
        <time>2016-05-28T09:18:58Z</time>
      </trkpt>
      <trkpt lat="44.79337" lon="-0.3677">
        <ele>77</ele>
        <time>2016-05-28T09:19:12Z</time>
      </trkpt>
      <trkpt lat="44.79319" lon="-0.36766">
        <ele>77</ele>
        <time>2016-05-28T09:19:32Z</time>
      </trkpt>
      <trkpt lat="44.79319" lon="-0.36767">
        <ele>77</ele>
        <time>2016-05-28T09:19:49Z</time>
      </trkpt>
      <trkpt lat="44.79317" lon="-0.36763">
        <ele>77</ele>
        <time>2016-05-28T09:19:55Z</time>
      </trkpt>
      <trkpt lat="44.79316" lon="-0.36756">
        <ele>77</ele>
        <time>2016-05-28T09:19:58Z</time>
      </trkpt>
      <trkpt lat="44.79316" lon="-0.36745">
        <ele>77</ele>
        <time>2016-05-28T09:20:11Z</time>
      </trkpt>
      <trkpt lat="44.7932" lon="-0.36732">
        <ele>77</ele>
        <time>2016-05-28T09:20:25Z</time>
      </trkpt>
      <trkpt lat="44.7933" lon="-0.36718">
        <ele>78</ele>
        <time>2016-05-28T09:20:42Z</time>
      </trkpt>
      <trkpt lat="44.79337" lon="-0.36708">
        <ele>78</ele>
        <time>2016-05-28T09:20:55Z</time>
      </trkpt>
      <trkpt lat="44.79348" lon="-0.36695">
        <ele>78</ele>
        <time>2016-05-28T09:21:09Z</time>
      </trkpt>
      <trkpt lat="44.79362" lon="-0.36689">
        <ele>78</ele>
        <time>2016-05-28T09:21:21Z</time>
      </trkpt>
      <trkpt lat="44.79366" lon="-0.36689">
        <ele>78</ele>
        <time>2016-05-28T09:21:24Z</time>
      </trkpt>
      <trkpt lat="44.79381" lon="-0.36689">
        <ele>79</ele>
        <time>2016-05-28T09:21:37Z</time>
      </trkpt>
      <trkpt lat="44.79389" lon="-0.3667">
        <ele>79</ele>
        <time>2016-05-28T09:21:45Z</time>
      </trkpt>
      <trkpt lat="44.79393" lon="-0.36668">
        <ele>79</ele>
        <time>2016-05-28T09:21:48Z</time>
      </trkpt>
      <trkpt lat="44.79414" lon="-0.36646">
        <ele>83</ele>
        <time>2016-05-28T09:22:04Z</time>
      </trkpt>
      <trkpt lat="44.79418" lon="-0.36643">
        <ele>82</ele>
        <time>2016-05-28T09:22:08Z</time>
      </trkpt>
      <trkpt lat="44.79423" lon="-0.36635">
        <ele>83</ele>
        <time>2016-05-28T09:22:23Z</time>
      </trkpt>
      <trkpt lat="44.7943" lon="-0.36624">
        <ele>83</ele>
        <time>2016-05-28T09:22:37Z</time>
      </trkpt>
      <trkpt lat="44.79424" lon="-0.3661">
        <ele>85</ele>
        <time>2016-05-28T09:22:51Z</time>
      </trkpt>
      <trkpt lat="44.79418" lon="-0.36591">
        <ele>87</ele>
        <time>2016-05-28T09:23:04Z</time>
      </trkpt>
      <trkpt lat="44.79415" lon="-0.36587">
        <ele>88</ele>
        <time>2016-05-28T09:23:07Z</time>
      </trkpt>
      <trkpt lat="44.79407" lon="-0.36579">
        <ele>90</ele>
        <time>2016-05-28T09:23:14Z</time>
      </trkpt>
      <trkpt lat="44.79391" lon="-0.36562">
        <ele>91</ele>
        <time>2016-05-28T09:23:28Z</time>
      </trkpt>
      <trkpt lat="44.79388" lon="-0.36558">
        <ele>91</ele>
        <time>2016-05-28T09:23:32Z</time>
      </trkpt>
      <trkpt lat="44.79384" lon="-0.36551">
        <ele>91</ele>
        <time>2016-05-28T09:23:37Z</time>
      </trkpt>
      <trkpt lat="44.79371" lon="-0.36533">
        <ele>92</ele>
        <time>2016-05-28T09:23:52Z</time>
      </trkpt>
      <trkpt lat="44.79362" lon="-0.3652">
        <ele>92</ele>
        <time>2016-05-28T09:24:02Z</time>
      </trkpt>
      <trkpt lat="44.79359" lon="-0.36515">
        <ele>93</ele>
        <time>2016-05-28T09:24:05Z</time>
      </trkpt>
      <trkpt lat="44.79339" lon="-0.36494">
        <ele>96</ele>
        <time>2016-05-28T09:24:21Z</time>
      </trkpt>
      <trkpt lat="44.79326" lon="-0.3648">
        <ele>96</ele>
        <time>2016-05-28T09:24:36Z</time>
      </trkpt>
      <trkpt lat="44.79315" lon="-0.36468">
        <ele>96</ele>
        <time>2016-05-28T09:24:51Z</time>
      </trkpt>
      <trkpt lat="44.79312" lon="-0.36465">
        <ele>96</ele>
        <time>2016-05-28T09:24:53Z</time>
      </trkpt>
      <trkpt lat="44.79317" lon="-0.3645">
        <ele>97</ele>
        <time>2016-05-28T09:25:09Z</time>
      </trkpt>
      <trkpt lat="44.79325" lon="-0.36438">
        <ele>98</ele>
        <time>2016-05-28T09:25:22Z</time>
      </trkpt>
      <trkpt lat="44.79334" lon="-0.36413">
        <ele>102</ele>
        <time>2016-05-28T09:25:34Z</time>
      </trkpt>
      <trkpt lat="44.79349" lon="-0.36408">
        <ele>102</ele>
        <time>2016-05-28T09:25:48Z</time>
      </trkpt>
      <trkpt lat="44.79365" lon="-0.36403">
        <ele>102</ele>
        <time>2016-05-28T09:26:01Z</time>
      </trkpt>
      <trkpt lat="44.79375" lon="-0.36399">
        <ele>102</ele>
        <time>2016-05-28T09:26:08Z</time>
      </trkpt>
      <trkpt lat="44.79384" lon="-0.3638">
        <ele>102</ele>
        <time>2016-05-28T09:26:22Z</time>
      </trkpt>
      <trkpt lat="44.7939" lon="-0.36353">
        <ele>103</ele>
        <time>2016-05-28T09:26:36Z</time>
      </trkpt>
      <trkpt lat="44.79389" lon="-0.36321">
        <ele>104</ele>
        <time>2016-05-28T09:26:52Z</time>
      </trkpt>
      <trkpt lat="44.7939" lon="-0.36278">
        <ele>104</ele>
        <time>2016-05-28T09:27:08Z</time>
      </trkpt>
      <trkpt lat="44.79391" lon="-0.36271">
        <ele>104</ele>
        <time>2016-05-28T09:27:18Z</time>
      </trkpt>
      <trkpt lat="44.79391" lon="-0.36258">
        <ele>104</ele>
        <time>2016-05-28T09:27:32Z</time>
      </trkpt>
      <trkpt lat="44.79389" lon="-0.36244">
        <ele>104</ele>
        <time>2016-05-28T09:27:44Z</time>
      </trkpt>
      <trkpt lat="44.79388" lon="-0.36224">
        <ele>104</ele>
        <time>2016-05-28T09:27:59Z</time>
      </trkpt>
      <trkpt lat="44.79387" lon="-0.36213">
        <ele>104</ele>
        <time>2016-05-28T09:28:07Z</time>
      </trkpt>
      <trkpt lat="44.79386" lon="-0.3619">
        <ele>103</ele>
        <time>2016-05-28T09:28:21Z</time>
      </trkpt>
      <trkpt lat="44.79386" lon="-0.36159">
        <ele>102</ele>
        <time>2016-05-28T09:28:36Z</time>
      </trkpt>
      <trkpt lat="44.79387" lon="-0.36157">
        <ele>102</ele>
        <time>2016-05-28T09:28:39Z</time>
      </trkpt>
      <trkpt lat="44.79384" lon="-0.36144">
        <ele>102</ele>
        <time>2016-05-28T09:28:50Z</time>
      </trkpt>
      <trkpt lat="44.79384" lon="-0.36117">
        <ele>102</ele>
        <time>2016-05-28T09:29:07Z</time>
      </trkpt>
      <trkpt lat="44.7938" lon="-0.36092">
        <ele>102</ele>
        <time>2016-05-28T09:29:22Z</time>
      </trkpt>
      <trkpt lat="44.79379" lon="-0.36075">
        <ele>102</ele>
        <time>2016-05-28T09:29:34Z</time>
      </trkpt>
      <trkpt lat="44.79379" lon="-0.36053">
        <ele>102</ele>
        <time>2016-05-28T09:29:50Z</time>
      </trkpt>
      <trkpt lat="44.79382" lon="-0.36032">
        <ele>102</ele>
        <time>2016-05-28T09:30:06Z</time>
      </trkpt>
      <trkpt lat="44.79386" lon="-0.36024">
        <ele>102</ele>
        <time>2016-05-28T09:30:22Z</time>
      </trkpt>
      <trkpt lat="44.79385" lon="-0.36025">
        <ele>102</ele>
        <time>2016-05-28T09:30:37Z</time>
      </trkpt>
      <trkpt lat="44.79384" lon="-0.36028">
        <ele>102</ele>
        <time>2016-05-28T09:30:46Z</time>
      </trkpt>
      <trkpt lat="44.79389" lon="-0.36031">
        <ele>102</ele>
        <time>2016-05-28T09:30:59Z</time>
      </trkpt>
      <trkpt lat="44.79405" lon="-0.36036">
        <ele>102</ele>
        <time>2016-05-28T09:31:15Z</time>
      </trkpt>
      <trkpt lat="44.79417" lon="-0.36038">
        <ele>100</ele>
        <time>2016-05-28T09:31:28Z</time>
      </trkpt>
      <trkpt lat="44.79436" lon="-0.3604">
        <ele>100</ele>
        <time>2016-05-28T09:31:43Z</time>
      </trkpt>
      <trkpt lat="44.7946" lon="-0.36046">
        <ele>100</ele>
        <time>2016-05-28T09:32:01Z</time>
      </trkpt>
      <trkpt lat="44.79477" lon="-0.36047">
        <ele>99</ele>
        <time>2016-05-28T09:32:16Z</time>
      </trkpt>
      <trkpt lat="44.79496" lon="-0.36047">
        <ele>99</ele>
        <time>2016-05-28T09:32:32Z</time>
      </trkpt>
      <trkpt lat="44.79515" lon="-0.36045">
        <ele>98</ele>
        <time>2016-05-28T09:32:47Z</time>
      </trkpt>
      <trkpt lat="44.79518" lon="-0.36044">
        <ele>98</ele>
        <time>2016-05-28T09:32:51Z</time>
      </trkpt>
      <trkpt lat="44.7954" lon="-0.36044">
        <ele>98</ele>
        <time>2016-05-28T09:33:08Z</time>
      </trkpt>
      <trkpt lat="44.79561" lon="-0.36042">
        <ele>98</ele>
        <time>2016-05-28T09:33:25Z</time>
      </trkpt>
      <trkpt lat="44.79566" lon="-0.36041">
        <ele>98</ele>
        <time>2016-05-28T09:33:28Z</time>
      </trkpt>
      <trkpt lat="44.79574" lon="-0.36037">
        <ele>98</ele>
        <time>2016-05-28T09:33:41Z</time>
      </trkpt>
      <trkpt lat="44.79575" lon="-0.36037">
        <ele>98</ele>
        <time>2016-05-28T09:33:43Z</time>
      </trkpt>
      <trkpt lat="44.79596" lon="-0.36036">
        <ele>97</ele>
        <time>2016-05-28T09:34:01Z</time>
      </trkpt>
      <trkpt lat="44.79615" lon="-0.36032">
        <ele>97</ele>
        <time>2016-05-28T09:34:18Z</time>
      </trkpt>
      <trkpt lat="44.79635" lon="-0.36025">
        <ele>96</ele>
        <time>2016-05-28T09:34:35Z</time>
      </trkpt>
      <trkpt lat="44.79645" lon="-0.36023">
        <ele>96</ele>
        <time>2016-05-28T09:34:43Z</time>
      </trkpt>
      <trkpt lat="44.79663" lon="-0.36015">
        <ele>96</ele>
        <time>2016-05-28T09:34:58Z</time>
      </trkpt>
      <trkpt lat="44.7968" lon="-0.36004">
        <ele>95</ele>
        <time>2016-05-28T09:35:11Z</time>
      </trkpt>
      <trkpt lat="44.797" lon="-0.35994">
        <ele>95</ele>
        <time>2016-05-28T09:35:26Z</time>
      </trkpt>
      <trkpt lat="44.79717" lon="-0.35987">
        <ele>95</ele>
        <time>2016-05-28T09:35:41Z</time>
      </trkpt>
      <trkpt lat="44.79739" lon="-0.35981">
        <ele>94</ele>
        <time>2016-05-28T09:35:57Z</time>
      </trkpt>
      <trkpt lat="44.79761" lon="-0.35976">
        <ele>94</ele>
        <time>2016-05-28T09:36:13Z</time>
      </trkpt>
      <trkpt lat="44.79783" lon="-0.35972">
        <ele>95</ele>
        <time>2016-05-28T09:36:30Z</time>
      </trkpt>
      <trkpt lat="44.79795" lon="-0.35968">
        <ele>95</ele>
        <time>2016-05-28T09:36:46Z</time>
      </trkpt>
      <trkpt lat="44.798" lon="-0.35957">
        <ele>95</ele>
        <time>2016-05-28T09:36:59Z</time>
      </trkpt>
      <trkpt lat="44.79808" lon="-0.35956">
        <ele>95</ele>
        <time>2016-05-28T09:37:12Z</time>
      </trkpt>
      <trkpt lat="44.79828" lon="-0.35953">
        <ele>95</ele>
        <time>2016-05-28T09:37:28Z</time>
      </trkpt>
      <trkpt lat="44.79848" lon="-0.35948">
        <ele>96</ele>
        <time>2016-05-28T09:37:44Z</time>
      </trkpt>
      <trkpt lat="44.79865" lon="-0.35942">
        <ele>96</ele>
        <time>2016-05-28T09:37:59Z</time>
      </trkpt>
      <trkpt lat="44.79885" lon="-0.35936">
        <ele>96</ele>
        <time>2016-05-28T09:38:15Z</time>
      </trkpt>
      <trkpt lat="44.79901" lon="-0.35932">
        <ele>96</ele>
        <time>2016-05-28T09:38:28Z</time>
      </trkpt>
      <trkpt lat="44.79916" lon="-0.35927">
        <ele>96</ele>
        <time>2016-05-28T09:38:40Z</time>
      </trkpt>
      <trkpt lat="44.79936" lon="-0.3592">
        <ele>96</ele>
        <time>2016-05-28T09:38:57Z</time>
      </trkpt>
      <trkpt lat="44.79939" lon="-0.35913">
        <ele>96</ele>
        <time>2016-05-28T09:39:03Z</time>
      </trkpt>
      <trkpt lat="44.79934" lon="-0.35887">
        <ele>96</ele>
        <time>2016-05-28T09:39:20Z</time>
      </trkpt>
      <trkpt lat="44.79929" lon="-0.35876">
        <ele>97</ele>
        <time>2016-05-28T09:39:28Z</time>
      </trkpt>
      <trkpt lat="44.79922" lon="-0.35858">
        <ele>97</ele>
        <time>2016-05-28T09:39:42Z</time>
      </trkpt>
      <trkpt lat="44.79911" lon="-0.35838">
        <ele>98</ele>
        <time>2016-05-28T09:39:57Z</time>
      </trkpt>
      <trkpt lat="44.79908" lon="-0.35817">
        <ele>98</ele>
        <time>2016-05-28T09:40:11Z</time>
      </trkpt>
      <trkpt lat="44.79919" lon="-0.35801">
        <ele>97</ele>
        <time>2016-05-28T09:40:26Z</time>
      </trkpt>
      <trkpt lat="44.79935" lon="-0.35787">
        <ele>97</ele>
        <time>2016-05-28T09:40:42Z</time>
      </trkpt>
      <trkpt lat="44.79947" lon="-0.35775">
        <ele>97</ele>
        <time>2016-05-28T09:40:56Z</time>
      </trkpt>
      <trkpt lat="44.79968" lon="-0.35759">
        <ele>97</ele>
        <time>2016-05-28T09:41:11Z</time>
      </trkpt>
      <trkpt lat="44.79987" lon="-0.35736">
        <ele>96</ele>
        <time>2016-05-28T09:41:29Z</time>
      </trkpt>
      <trkpt lat="44.80004" lon="-0.35714">
        <ele>95</ele>
        <time>2016-05-28T09:41:46Z</time>
      </trkpt>
      <trkpt lat="44.8002" lon="-0.35697">
        <ele>94</ele>
        <time>2016-05-28T09:42:02Z</time>
      </trkpt>
      <trkpt lat="44.80035" lon="-0.35677">
        <ele>94</ele>
        <time>2016-05-28T09:42:19Z</time>
      </trkpt>
      <trkpt lat="44.80055" lon="-0.35656">
        <ele>93</ele>
        <time>2016-05-28T09:42:37Z</time>
      </trkpt>
      <trkpt lat="44.8007" lon="-0.35638">
        <ele>93</ele>
        <time>2016-05-28T09:42:53Z</time>
      </trkpt>
      <trkpt lat="44.80087" lon="-0.35618">
        <ele>91</ele>
        <time>2016-05-28T09:43:10Z</time>
      </trkpt>
      <trkpt lat="44.80103" lon="-0.35601">
        <ele>91</ele>
        <time>2016-05-28T09:43:25Z</time>
      </trkpt>
      <trkpt lat="44.80119" lon="-0.35587">
        <ele>91</ele>
        <time>2016-05-28T09:43:40Z</time>
      </trkpt>
      <trkpt lat="44.80131" lon="-0.35578">
        <ele>93</ele>
        <time>2016-05-28T09:43:54Z</time>
      </trkpt>
      <trkpt lat="44.8015" lon="-0.35562">
        <ele>93</ele>
        <time>2016-05-28T09:44:12Z</time>
      </trkpt>
      <trkpt lat="44.8016" lon="-0.35549">
        <ele>93</ele>
        <time>2016-05-28T09:44:25Z</time>
      </trkpt>
      <trkpt lat="44.8017" lon="-0.35535">
        <ele>92</ele>
        <time>2016-05-28T09:44:41Z</time>
      </trkpt>
      <trkpt lat="44.80182" lon="-0.35521">
        <ele>92</ele>
        <time>2016-05-28T09:44:53Z</time>
      </trkpt>
      <trkpt lat="44.80196" lon="-0.35505">
        <ele>92</ele>
        <time>2016-05-28T09:45:09Z</time>
      </trkpt>
      <trkpt lat="44.80205" lon="-0.35496">
        <ele>94</ele>
        <time>2016-05-28T09:45:23Z</time>
      </trkpt>
      <trkpt lat="44.80214" lon="-0.35482">
        <ele>94</ele>
        <time>2016-05-28T09:45:34Z</time>
      </trkpt>
      <trkpt lat="44.80223" lon="-0.35467">
        <ele>94</ele>
        <time>2016-05-28T09:45:46Z</time>
      </trkpt>
      <trkpt lat="44.80222" lon="-0.35436">
        <ele>94</ele>
        <time>2016-05-28T09:46:02Z</time>
      </trkpt>
      <trkpt lat="44.80224" lon="-0.35434">
        <ele>94</ele>
        <time>2016-05-28T09:46:17Z</time>
      </trkpt>
      <trkpt lat="44.80227" lon="-0.35434">
        <ele>94</ele>
        <time>2016-05-28T09:46:28Z</time>
      </trkpt>
      <trkpt lat="44.80231" lon="-0.35432">
        <ele>94</ele>
        <time>2016-05-28T09:46:39Z</time>
      </trkpt>
      <trkpt lat="44.80239" lon="-0.35425">
        <ele>95</ele>
        <time>2016-05-28T09:46:53Z</time>
      </trkpt>
      <trkpt lat="44.80248" lon="-0.35418">
        <ele>95</ele>
        <time>2016-05-28T09:47:06Z</time>
      </trkpt>
      <trkpt lat="44.80258" lon="-0.35409">
        <ele>93</ele>
        <time>2016-05-28T09:47:19Z</time>
      </trkpt>
      <trkpt lat="44.8027" lon="-0.35397">
        <ele>91</ele>
        <time>2016-05-28T09:47:34Z</time>
      </trkpt>
      <trkpt lat="44.80275" lon="-0.35379">
        <ele>91</ele>
        <time>2016-05-28T09:47:50Z</time>
      </trkpt>
      <trkpt lat="44.80278" lon="-0.35359">
        <ele>90</ele>
        <time>2016-05-28T09:48:03Z</time>
      </trkpt>
      <trkpt lat="44.80283" lon="-0.35345">
        <ele>90</ele>
        <time>2016-05-28T09:48:16Z</time>
      </trkpt>
      <trkpt lat="44.80289" lon="-0.35338">
        <ele>90</ele>
        <time>2016-05-28T09:48:29Z</time>
      </trkpt>
      <trkpt lat="44.80292" lon="-0.35324">
        <ele>86</ele>
        <time>2016-05-28T09:48:43Z</time>
      </trkpt>
      <trkpt lat="44.80289" lon="-0.35305">
        <ele>86</ele>
        <time>2016-05-28T09:48:59Z</time>
      </trkpt>
      <trkpt lat="44.80293" lon="-0.35289">
        <ele>85</ele>
        <time>2016-05-28T09:49:13Z</time>
      </trkpt>
      <trkpt lat="44.80295" lon="-0.35272">
        <ele>84</ele>
        <time>2016-05-28T09:49:30Z</time>
      </trkpt>
      <trkpt lat="44.80293" lon="-0.35262">
        <ele>84</ele>
        <time>2016-05-28T09:49:46Z</time>
      </trkpt>
      <trkpt lat="44.80296" lon="-0.35246">
        <ele>79</ele>
        <time>2016-05-28T09:50:01Z</time>
      </trkpt>
      <trkpt lat="44.80296" lon="-0.35231">
        <ele>79</ele>
        <time>2016-05-28T09:50:14Z</time>
      </trkpt>
      <trkpt lat="44.80298" lon="-0.35214">
        <ele>79</ele>
        <time>2016-05-28T09:50:27Z</time>
      </trkpt>
      <trkpt lat="44.80302" lon="-0.35195">
        <ele>78</ele>
        <time>2016-05-28T09:50:43Z</time>
      </trkpt>
      <trkpt lat="44.80304" lon="-0.35167">
        <ele>76</ele>
        <time>2016-05-28T09:50:56Z</time>
      </trkpt>
      <trkpt lat="44.80309" lon="-0.35155">
        <ele>74</ele>
        <time>2016-05-28T09:51:07Z</time>
      </trkpt>
      <trkpt lat="44.80322" lon="-0.35142">
        <ele>73</ele>
        <time>2016-05-28T09:51:22Z</time>
      </trkpt>
      <trkpt lat="44.80332" lon="-0.35126">
        <ele>72</ele>
        <time>2016-05-28T09:51:35Z</time>
      </trkpt>
      <trkpt lat="44.80336" lon="-0.35115">
        <ele>69</ele>
        <time>2016-05-28T09:51:44Z</time>
      </trkpt>
      <trkpt lat="44.80337" lon="-0.35113">
        <ele>68</ele>
        <time>2016-05-28T09:51:46Z</time>
      </trkpt>
      <trkpt lat="44.80343" lon="-0.35102">
        <ele>68</ele>
        <time>2016-05-28T09:51:55Z</time>
      </trkpt>
      <trkpt lat="44.8035" lon="-0.35079">
        <ele>66</ele>
        <time>2016-05-28T09:52:11Z</time>
      </trkpt>
      <trkpt lat="44.80358" lon="-0.35058">
        <ele>66</ele>
        <time>2016-05-28T09:52:26Z</time>
      </trkpt>
      <trkpt lat="44.80361" lon="-0.35049">
        <ele>66</ele>
        <time>2016-05-28T09:52:31Z</time>
      </trkpt>
      <trkpt lat="44.80364" lon="-0.3504">
        <ele>66</ele>
        <time>2016-05-28T09:52:42Z</time>
      </trkpt>
      <trkpt lat="44.80372" lon="-0.35033">
        <ele>65</ele>
        <time>2016-05-28T09:52:56Z</time>
      </trkpt>
      <trkpt lat="44.80377" lon="-0.35023">
        <ele>65</ele>
        <time>2016-05-28T09:53:10Z</time>
      </trkpt>
      <trkpt lat="44.80384" lon="-0.35011">
        <ele>65</ele>
        <time>2016-05-28T09:53:24Z</time>
      </trkpt>
      <trkpt lat="44.80389" lon="-0.34997">
        <ele>63</ele>
        <time>2016-05-28T09:53:37Z</time>
      </trkpt>
      <trkpt lat="44.80394" lon="-0.34981">
        <ele>62</ele>
        <time>2016-05-28T09:53:51Z</time>
      </trkpt>
      <trkpt lat="44.80401" lon="-0.34973">
        <ele>62</ele>
        <time>2016-05-28T09:54:03Z</time>
      </trkpt>
      <trkpt lat="44.80409" lon="-0.34967">
        <ele>62</ele>
        <time>2016-05-28T09:54:14Z</time>
      </trkpt>
      <trkpt lat="44.80413" lon="-0.34953">
        <ele>62</ele>
        <time>2016-05-28T09:54:27Z</time>
      </trkpt>
      <trkpt lat="44.80417" lon="-0.34935">
        <ele>60</ele>
        <time>2016-05-28T09:54:40Z</time>
      </trkpt>
      <trkpt lat="44.80426" lon="-0.34918">
        <ele>60</ele>
        <time>2016-05-28T09:54:54Z</time>
      </trkpt>
      <trkpt lat="44.8043" lon="-0.34904">
        <ele>58</ele>
        <time>2016-05-28T09:55:06Z</time>
      </trkpt>
      <trkpt lat="44.80434" lon="-0.34887">
        <ele>57</ele>
        <time>2016-05-28T09:55:18Z</time>
      </trkpt>
      <trkpt lat="44.80438" lon="-0.34867">
        <ele>57</ele>
        <time>2016-05-28T09:55:31Z</time>
      </trkpt>
      <trkpt lat="44.80441" lon="-0.34867">
        <ele>57</ele>
        <time>2016-05-28T09:55:34Z</time>
      </trkpt>
      <trkpt lat="44.80446" lon="-0.34862">
        <ele>56</ele>
        <time>2016-05-28T09:55:41Z</time>
      </trkpt>
      <trkpt lat="44.80454" lon="-0.3485">
        <ele>56</ele>
        <time>2016-05-28T09:55:48Z</time>
      </trkpt>
      <trkpt lat="44.80466" lon="-0.34823">
        <ele>52</ele>
        <time>2016-05-28T09:56:03Z</time>
      </trkpt>
      <trkpt lat="44.80481" lon="-0.34811">
        <ele>52</ele>
        <time>2016-05-28T09:56:16Z</time>
      </trkpt>
      <trkpt lat="44.80492" lon="-0.34787">
        <ele>51</ele>
        <time>2016-05-28T09:56:30Z</time>
      </trkpt>
      <trkpt lat="44.80495" lon="-0.34755">
        <ele>48</ele>
        <time>2016-05-28T09:56:46Z</time>
      </trkpt>
      <trkpt lat="44.80495" lon="-0.34751">
        <ele>48</ele>
        <time>2016-05-28T09:57:02Z</time>
      </trkpt>
      <trkpt lat="44.80497" lon="-0.34751">
        <ele>48</ele>
        <time>2016-05-28T09:57:21Z</time>
      </trkpt>
      <trkpt lat="44.80496" lon="-0.3475">
        <ele>47</ele>
        <time>2016-05-28T09:57:43Z</time>
      </trkpt>
      <trkpt lat="44.80494" lon="-0.34747">
        <ele>47</ele>
        <time>2016-05-28T09:57:55Z</time>
      </trkpt>
      <trkpt lat="44.80488" lon="-0.3473">
        <ele>47</ele>
        <time>2016-05-28T09:58:11Z</time>
      </trkpt>
      <trkpt lat="44.80487" lon="-0.34726">
        <ele>47</ele>
        <time>2016-05-28T09:58:14Z</time>
      </trkpt>
      <trkpt lat="44.80484" lon="-0.34707">
        <ele>46</ele>
        <time>2016-05-28T09:58:28Z</time>
      </trkpt>
      <trkpt lat="44.8048" lon="-0.34688">
        <ele>46</ele>
        <time>2016-05-28T09:58:41Z</time>
      </trkpt>
      <trkpt lat="44.80479" lon="-0.3468">
        <ele>46</ele>
        <time>2016-05-28T09:58:46Z</time>
      </trkpt>
      <trkpt lat="44.80465" lon="-0.34651">
        <ele>45</ele>
        <time>2016-05-28T09:59:04Z</time>
      </trkpt>
      <trkpt lat="44.80453" lon="-0.34627">
        <ele>45</ele>
        <time>2016-05-28T09:59:20Z</time>
      </trkpt>
      <trkpt lat="44.80442" lon="-0.34611">
        <ele>45</ele>
        <time>2016-05-28T09:59:35Z</time>
      </trkpt>
      <trkpt lat="44.80429" lon="-0.34594">
        <ele>46</ele>
        <time>2016-05-28T09:59:50Z</time>
      </trkpt>
      <trkpt lat="44.80429" lon="-0.34588">
        <ele>46</ele>
        <time>2016-05-28T10:00:13Z</time>
      </trkpt>
      <trkpt lat="44.80443" lon="-0.34585">
        <ele>46</ele>
        <time>2016-05-28T10:00:28Z</time>
      </trkpt>
      <trkpt lat="44.80444" lon="-0.34584">
        <ele>45</ele>
        <time>2016-05-28T10:00:30Z</time>
      </trkpt>
      <trkpt lat="44.80458" lon="-0.34572">
        <ele>44</ele>
        <time>2016-05-28T10:00:44Z</time>
      </trkpt>
      <trkpt lat="44.80476" lon="-0.34556">
        <ele>44</ele>
        <time>2016-05-28T10:00:58Z</time>
      </trkpt>
      <trkpt lat="44.8048" lon="-0.34552">
        <ele>44</ele>
        <time>2016-05-28T10:01:02Z</time>
      </trkpt>
      <trkpt lat="44.80497" lon="-0.34539">
        <ele>44</ele>
        <time>2016-05-28T10:01:18Z</time>
      </trkpt>
      <trkpt lat="44.80509" lon="-0.34531">
        <ele>43</ele>
        <time>2016-05-28T10:01:33Z</time>
      </trkpt>
      <trkpt lat="44.80509" lon="-0.34524">
        <ele>43</ele>
        <time>2016-05-28T10:01:38Z</time>
      </trkpt>
      <trkpt lat="44.80522" lon="-0.34498">
        <ele>44</ele>
        <time>2016-05-28T10:01:54Z</time>
      </trkpt>
      <trkpt lat="44.80532" lon="-0.3448">
        <ele>44</ele>
        <time>2016-05-28T10:02:07Z</time>
      </trkpt>
      <trkpt lat="44.80539" lon="-0.34466">
        <ele>44</ele>
        <time>2016-05-28T10:02:16Z</time>
      </trkpt>
      <trkpt lat="44.8055" lon="-0.34446">
        <ele>45</ele>
        <time>2016-05-28T10:02:31Z</time>
      </trkpt>
      <trkpt lat="44.80559" lon="-0.34432">
        <ele>45</ele>
        <time>2016-05-28T10:02:42Z</time>
      </trkpt>
      <trkpt lat="44.80565" lon="-0.34427">
        <ele>45</ele>
        <time>2016-05-28T10:02:48Z</time>
      </trkpt>
      <trkpt lat="44.80578" lon="-0.34406">
        <ele>47</ele>
        <time>2016-05-28T10:03:04Z</time>
      </trkpt>
      <trkpt lat="44.80584" lon="-0.34395">
        <ele>50</ele>
        <time>2016-05-28T10:03:17Z</time>
      </trkpt>
      <trkpt lat="44.80594" lon="-0.34381">
        <ele>51</ele>
        <time>2016-05-28T10:03:30Z</time>
      </trkpt>
      <trkpt lat="44.80599" lon="-0.34363">
        <ele>52</ele>
        <time>2016-05-28T10:03:46Z</time>
      </trkpt>
      <trkpt lat="44.80603" lon="-0.34347">
        <ele>52</ele>
        <time>2016-05-28T10:04:01Z</time>
      </trkpt>
      <trkpt lat="44.80609" lon="-0.34339">
        <ele>52</ele>
        <time>2016-05-28T10:04:12Z</time>
      </trkpt>
      <trkpt lat="44.80615" lon="-0.34334">
        <ele>53</ele>
        <time>2016-05-28T10:04:19Z</time>
      </trkpt>
      <trkpt lat="44.8062" lon="-0.34331">
        <ele>57</ele>
        <time>2016-05-28T10:04:25Z</time>
      </trkpt>
      <trkpt lat="44.80635" lon="-0.34317">
        <ele>59</ele>
        <time>2016-05-28T10:04:39Z</time>
      </trkpt>
      <trkpt lat="44.80644" lon="-0.34302">
        <ele>59</ele>
        <time>2016-05-28T10:04:50Z</time>
      </trkpt>
      <trkpt lat="44.80645" lon="-0.34301">
        <ele>60</ele>
        <time>2016-05-28T10:04:51Z</time>
      </trkpt>
      <trkpt lat="44.80651" lon="-0.34284">
        <ele>61</ele>
        <time>2016-05-28T10:05:04Z</time>
      </trkpt>
      <trkpt lat="44.80658" lon="-0.34262">
        <ele>64</ele>
        <time>2016-05-28T10:05:18Z</time>
      </trkpt>
      <trkpt lat="44.80668" lon="-0.34237">
        <ele>68</ele>
        <time>2016-05-28T10:05:34Z</time>
      </trkpt>
      <trkpt lat="44.80676" lon="-0.34217">
        <ele>69</ele>
        <time>2016-05-28T10:05:48Z</time>
      </trkpt>
      <trkpt lat="44.80683" lon="-0.34192">
        <ele>69</ele>
        <time>2016-05-28T10:06:03Z</time>
      </trkpt>
      <trkpt lat="44.80688" lon="-0.34171">
        <ele>70</ele>
        <time>2016-05-28T10:06:15Z</time>
      </trkpt>
      <trkpt lat="44.8069" lon="-0.34164">
        <ele>73</ele>
        <time>2016-05-28T10:06:19Z</time>
      </trkpt>
      <trkpt lat="44.807" lon="-0.34136">
        <ele>73</ele>
        <time>2016-05-28T10:06:36Z</time>
      </trkpt>
      <trkpt lat="44.80701" lon="-0.34135">
        <ele>74</ele>
        <time>2016-05-28T10:06:37Z</time>
      </trkpt>
      <trkpt lat="44.80704" lon="-0.34123">
        <ele>74</ele>
        <time>2016-05-28T10:06:43Z</time>
      </trkpt>
      <trkpt lat="44.80713" lon="-0.34109">
        <ele>75</ele>
        <time>2016-05-28T10:06:59Z</time>
      </trkpt>
      <trkpt lat="44.80721" lon="-0.341">
        <ele>75</ele>
        <time>2016-05-28T10:07:10Z</time>
      </trkpt>
      <trkpt lat="44.80722" lon="-0.34098">
        <ele>76</ele>
        <time>2016-05-28T10:07:13Z</time>
      </trkpt>
      <trkpt lat="44.80733" lon="-0.34085">
        <ele>77</ele>
        <time>2016-05-28T10:07:28Z</time>
      </trkpt>
      <trkpt lat="44.80737" lon="-0.34079">
        <ele>79</ele>
        <time>2016-05-28T10:07:33Z</time>
      </trkpt>
      <trkpt lat="44.80747" lon="-0.34064">
        <ele>80</ele>
        <time>2016-05-28T10:07:47Z</time>
      </trkpt>
      <trkpt lat="44.80753" lon="-0.34045">
        <ele>83</ele>
        <time>2016-05-28T10:08:03Z</time>
      </trkpt>
      <trkpt lat="44.80763" lon="-0.34026">
        <ele>83</ele>
        <time>2016-05-28T10:08:17Z</time>
      </trkpt>
      <trkpt lat="44.80774" lon="-0.34008">
        <ele>84</ele>
        <time>2016-05-28T10:08:32Z</time>
      </trkpt>
      <trkpt lat="44.80783" lon="-0.33995">
        <ele>88</ele>
        <time>2016-05-28T10:08:46Z</time>
      </trkpt>
      <trkpt lat="44.80792" lon="-0.33977">
        <ele>88</ele>
        <time>2016-05-28T10:09:01Z</time>
      </trkpt>
      <trkpt lat="44.80802" lon="-0.33963">
        <ele>89</ele>
        <time>2016-05-28T10:09:15Z</time>
      </trkpt>
      <trkpt lat="44.80809" lon="-0.33946">
        <ele>90</ele>
        <time>2016-05-28T10:09:28Z</time>
      </trkpt>
      <trkpt lat="44.80818" lon="-0.33921">
        <ele>91</ele>
        <time>2016-05-28T10:09:41Z</time>
      </trkpt>
      <trkpt lat="44.80832" lon="-0.33919">
        <ele>92</ele>
        <time>2016-05-28T10:09:56Z</time>
      </trkpt>
      <trkpt lat="44.80846" lon="-0.33918">
        <ele>91</ele>
        <time>2016-05-28T10:10:09Z</time>
      </trkpt>
      <trkpt lat="44.80847" lon="-0.33918">
        <ele>91</ele>
        <time>2016-05-28T10:10:10Z</time>
      </trkpt>
      <trkpt lat="44.80869" lon="-0.33916">
        <ele>94</ele>
        <time>2016-05-28T10:10:26Z</time>
      </trkpt>
      <trkpt lat="44.80882" lon="-0.33916">
        <ele>94</ele>
        <time>2016-05-28T10:10:39Z</time>
      </trkpt>
      <trkpt lat="44.80891" lon="-0.33917">
        <ele>92</ele>
        <time>2016-05-28T10:10:49Z</time>
      </trkpt>
      <trkpt lat="44.80896" lon="-0.33917">
        <ele>92</ele>
        <time>2016-05-28T10:10:53Z</time>
      </trkpt>
      <trkpt lat="44.80901" lon="-0.33919">
        <ele>92</ele>
        <time>2016-05-28T10:10:57Z</time>
      </trkpt>
      <trkpt lat="44.80925" lon="-0.33931">
        <ele>92</ele>
        <time>2016-05-28T10:11:13Z</time>
      </trkpt>
      <trkpt lat="44.80944" lon="-0.3393">
        <ele>92</ele>
        <time>2016-05-28T10:11:26Z</time>
      </trkpt>
      <trkpt lat="44.8097" lon="-0.3393">
        <ele>92</ele>
        <time>2016-05-28T10:11:44Z</time>
      </trkpt>
      <trkpt lat="44.80995" lon="-0.33933">
        <ele>92</ele>
        <time>2016-05-28T10:12:02Z</time>
      </trkpt>
      <trkpt lat="44.81016" lon="-0.33936">
        <ele>92</ele>
        <time>2016-05-28T10:12:18Z</time>
      </trkpt>
      <trkpt lat="44.8104" lon="-0.33941">
        <ele>92</ele>
        <time>2016-05-28T10:12:36Z</time>
      </trkpt>
      <trkpt lat="44.81057" lon="-0.33951">
        <ele>92</ele>
        <time>2016-05-28T10:12:51Z</time>
      </trkpt>
      <trkpt lat="44.81076" lon="-0.33963">
        <ele>92</ele>
        <time>2016-05-28T10:13:07Z</time>
      </trkpt>
      <trkpt lat="44.8109" lon="-0.33975">
        <ele>92</ele>
        <time>2016-05-28T10:13:21Z</time>
      </trkpt>
      <trkpt lat="44.81107" lon="-0.33986">
        <ele>92</ele>
        <time>2016-05-28T10:13:36Z</time>
      </trkpt>
      <trkpt lat="44.81119" lon="-0.33995">
        <ele>92</ele>
        <time>2016-05-28T10:13:50Z</time>
      </trkpt>
      <trkpt lat="44.81123" lon="-0.33994">
        <ele>92</ele>
        <time>2016-05-28T10:14:08Z</time>
      </trkpt>
      <trkpt lat="44.81121" lon="-0.33993">
        <ele>92</ele>
        <time>2016-05-28T10:14:26Z</time>
      </trkpt>
      <trkpt lat="44.81122" lon="-0.33993">
        <ele>92</ele>
        <time>2016-05-28T10:14:45Z</time>
      </trkpt>
      <trkpt lat="44.81128" lon="-0.33993">
        <ele>92</ele>
        <time>2016-05-28T10:14:56Z</time>
      </trkpt>
      <trkpt lat="44.81138" lon="-0.34">
        <ele>92</ele>
        <time>2016-05-28T10:15:10Z</time>
      </trkpt>
      <trkpt lat="44.81144" lon="-0.34004">
        <ele>93</ele>
        <time>2016-05-28T10:15:18Z</time>
      </trkpt>
      <trkpt lat="44.81158" lon="-0.34014">
        <ele>93</ele>
        <time>2016-05-28T10:15:34Z</time>
      </trkpt>
      <trkpt lat="44.81173" lon="-0.34032">
        <ele>90</ele>
        <time>2016-05-28T10:15:52Z</time>
      </trkpt>
      <trkpt lat="44.81183" lon="-0.34046">
        <ele>90</ele>
        <time>2016-05-28T10:16:05Z</time>
      </trkpt>
      <trkpt lat="44.81196" lon="-0.34061">
        <ele>90</ele>
        <time>2016-05-28T10:16:19Z</time>
      </trkpt>
      <trkpt lat="44.81207" lon="-0.34077">
        <ele>90</ele>
        <time>2016-05-28T10:16:35Z</time>
      </trkpt>
      <trkpt lat="44.81214" lon="-0.3409">
        <ele>89</ele>
        <time>2016-05-28T10:16:48Z</time>
      </trkpt>
      <trkpt lat="44.81226" lon="-0.34113">
        <ele>89</ele>
        <time>2016-05-28T10:17:05Z</time>
      </trkpt>
      <trkpt lat="44.81239" lon="-0.34129">
        <ele>89</ele>
        <time>2016-05-28T10:17:19Z</time>
      </trkpt>
      <trkpt lat="44.81255" lon="-0.34145">
        <ele>89</ele>
        <time>2016-05-28T10:17:33Z</time>
      </trkpt>
      <trkpt lat="44.81258" lon="-0.34148">
        <ele>89</ele>
        <time>2016-05-28T10:17:36Z</time>
      </trkpt>
      <trkpt lat="44.81275" lon="-0.34167">
        <ele>88</ele>
        <time>2016-05-28T10:17:53Z</time>
      </trkpt>
      <trkpt lat="44.81293" lon="-0.34171">
        <ele>88</ele>
        <time>2016-05-28T10:18:09Z</time>
      </trkpt>
      <trkpt lat="44.81306" lon="-0.34176">
        <ele>88</ele>
        <time>2016-05-28T10:18:22Z</time>
      </trkpt>
      <trkpt lat="44.81322" lon="-0.34174">
        <ele>87</ele>
        <time>2016-05-28T10:18:34Z</time>
      </trkpt>
      <trkpt lat="44.81337" lon="-0.34179">
        <ele>84</ele>
        <time>2016-05-28T10:18:47Z</time>
      </trkpt>
      <trkpt lat="44.81353" lon="-0.34179">
        <ele>83</ele>
        <time>2016-05-28T10:19:02Z</time>
      </trkpt>
      <trkpt lat="44.8137" lon="-0.34181">
        <ele>81</ele>
        <time>2016-05-28T10:19:17Z</time>
      </trkpt>
      <trkpt lat="44.81386" lon="-0.34181">
        <ele>80</ele>
        <time>2016-05-28T10:19:30Z</time>
      </trkpt>
      <trkpt lat="44.81392" lon="-0.3418">
        <ele>79</ele>
        <time>2016-05-28T10:19:42Z</time>
      </trkpt>
      <trkpt lat="44.81398" lon="-0.34179">
        <ele>79</ele>
        <time>2016-05-28T10:19:50Z</time>
      </trkpt>
      <trkpt lat="44.81408" lon="-0.34176">
        <ele>78</ele>
        <time>2016-05-28T10:19:59Z</time>
      </trkpt>
      <trkpt lat="44.81428" lon="-0.34175">
        <ele>75</ele>
        <time>2016-05-28T10:20:17Z</time>
      </trkpt>
      <trkpt lat="44.81454" lon="-0.34172">
        <ele>73</ele>
        <time>2016-05-28T10:20:37Z</time>
      </trkpt>
      <trkpt lat="44.81476" lon="-0.34177">
        <ele>72</ele>
        <time>2016-05-28T10:20:54Z</time>
      </trkpt>
      <trkpt lat="44.81496" lon="-0.34186">
        <ele>72</ele>
        <time>2016-05-28T10:21:10Z</time>
      </trkpt>
      <trkpt lat="44.81516" lon="-0.342">
        <ele>70</ele>
        <time>2016-05-28T10:21:28Z</time>
      </trkpt>
      <trkpt lat="44.81534" lon="-0.34215">
        <ele>70</ele>
        <time>2016-05-28T10:21:46Z</time>
      </trkpt>
      <trkpt lat="44.81545" lon="-0.34225">
        <ele>70</ele>
        <time>2016-05-28T10:21:57Z</time>
      </trkpt>
      <trkpt lat="44.8156" lon="-0.34243">
        <ele>69</ele>
        <time>2016-05-28T10:22:15Z</time>
      </trkpt>
      <trkpt lat="44.81575" lon="-0.34256">
        <ele>69</ele>
        <time>2016-05-28T10:22:31Z</time>
      </trkpt>
      <trkpt lat="44.81592" lon="-0.34276">
        <ele>67</ele>
        <time>2016-05-28T10:22:50Z</time>
      </trkpt>
      <trkpt lat="44.816" lon="-0.343">
        <ele>67</ele>
        <time>2016-05-28T10:23:05Z</time>
      </trkpt>
      <trkpt lat="44.81608" lon="-0.34326">
        <ele>67</ele>
        <time>2016-05-28T10:23:21Z</time>
      </trkpt>
      <trkpt lat="44.81622" lon="-0.34346">
        <ele>65</ele>
        <time>2016-05-28T10:23:37Z</time>
      </trkpt>
      <trkpt lat="44.81642" lon="-0.34357">
        <ele>64</ele>
        <time>2016-05-28T10:23:54Z</time>
      </trkpt>
      <trkpt lat="44.81661" lon="-0.34361">
        <ele>64</ele>
        <time>2016-05-28T10:24:10Z</time>
      </trkpt>
      <trkpt lat="44.81683" lon="-0.34357">
        <ele>63</ele>
        <time>2016-05-28T10:24:26Z</time>
      </trkpt>
      <trkpt lat="44.81702" lon="-0.34349">
        <ele>63</ele>
        <time>2016-05-28T10:24:42Z</time>
      </trkpt>
      <trkpt lat="44.81718" lon="-0.34343">
        <ele>63</ele>
        <time>2016-05-28T10:24:55Z</time>
      </trkpt>
      <trkpt lat="44.81736" lon="-0.34336">
        <ele>62</ele>
        <time>2016-05-28T10:25:10Z</time>
      </trkpt>
      <trkpt lat="44.81748" lon="-0.3433">
        <ele>62</ele>
        <time>2016-05-28T10:25:24Z</time>
      </trkpt>
      <trkpt lat="44.81752" lon="-0.34327">
        <ele>61</ele>
        <time>2016-05-28T10:25:28Z</time>
      </trkpt>
      <trkpt lat="44.81771" lon="-0.34321">
        <ele>59</ele>
        <time>2016-05-28T10:25:44Z</time>
      </trkpt>
      <trkpt lat="44.81791" lon="-0.34314">
        <ele>58</ele>
        <time>2016-05-28T10:26:01Z</time>
      </trkpt>
      <trkpt lat="44.81813" lon="-0.34308">
        <ele>57</ele>
        <time>2016-05-28T10:26:20Z</time>
      </trkpt>
      <trkpt lat="44.81827" lon="-0.34312">
        <ele>57</ele>
        <time>2016-05-28T10:26:33Z</time>
      </trkpt>
      <trkpt lat="44.81838" lon="-0.34324">
        <ele>54</ele>
        <time>2016-05-28T10:26:47Z</time>
      </trkpt>
      <trkpt lat="44.81854" lon="-0.34346">
        <ele>54</ele>
        <time>2016-05-28T10:27:06Z</time>
      </trkpt>
      <trkpt lat="44.81872" lon="-0.34366">
        <ele>52</ele>
        <time>2016-05-28T10:27:25Z</time>
      </trkpt>
      <trkpt lat="44.81889" lon="-0.34386">
        <ele>52</ele>
        <time>2016-05-28T10:27:42Z</time>
      </trkpt>
      <trkpt lat="44.81906" lon="-0.34406">
        <ele>50</ele>
        <time>2016-05-28T10:28:00Z</time>
      </trkpt>
      <trkpt lat="44.81922" lon="-0.34426">
        <ele>48</ele>
        <time>2016-05-28T10:28:17Z</time>
      </trkpt>
      <trkpt lat="44.81937" lon="-0.34449">
        <ele>48</ele>
        <time>2016-05-28T10:28:35Z</time>
      </trkpt>
      <trkpt lat="44.81937" lon="-0.34469">
        <ele>48</ele>
        <time>2016-05-28T10:28:50Z</time>
      </trkpt>
      <trkpt lat="44.81937" lon="-0.34483">
        <ele>49</ele>
        <time>2016-05-28T10:28:58Z</time>
      </trkpt>
      <trkpt lat="44.81944" lon="-0.34509">
        <ele>49</ele>
        <time>2016-05-28T10:29:16Z</time>
      </trkpt>
      <trkpt lat="44.81949" lon="-0.34517">
        <ele>49</ele>
        <time>2016-05-28T10:29:32Z</time>
      </trkpt>
      <trkpt lat="44.81951" lon="-0.34519">
        <ele>49</ele>
        <time>2016-05-28T10:29:34Z</time>
      </trkpt>
      <trkpt lat="44.81952" lon="-0.34528">
        <ele>49</ele>
        <time>2016-05-28T10:29:41Z</time>
      </trkpt>
      <trkpt lat="44.8195" lon="-0.34539">
        <ele>49</ele>
        <time>2016-05-28T10:29:51Z</time>
      </trkpt>
      <trkpt lat="44.81958" lon="-0.34564">
        <ele>48</ele>
        <time>2016-05-28T10:30:07Z</time>
      </trkpt>
      <trkpt lat="44.81969" lon="-0.3457">
        <ele>48</ele>
        <time>2016-05-28T10:30:20Z</time>
      </trkpt>
      <trkpt lat="44.81973" lon="-0.34567">
        <ele>48</ele>
        <time>2016-05-28T10:30:34Z</time>
      </trkpt>
      <trkpt lat="44.81973" lon="-0.34567">
        <ele>48</ele>
        <time>2016-05-28T10:30:44Z</time>
      </trkpt>
      <trkpt lat="44.81973" lon="-0.34567">
        <ele>48</ele>
        <time>2016-05-28T10:30:47Z</time>
      </trkpt>
      <trkpt lat="44.81973" lon="-0.34566">
        <ele>48</ele>
        <time>2016-05-28T10:30:59Z</time>
      </trkpt>
    </trkseg>
  </trk>
</gpx>